<?xml version="1.0" encoding="UTF-8" standalone="no" ?>
<gpx xmlns="http://www.topografix.com/GPX/1/1" xmlns:xsi="http://www.w3.org/2001/XMLSchema-instance" xsi:schemaLocation="http://www.topografix.com/GPX/1/1 http://www.topografix.com/GPX/1/1/gpx.xsd" version="1.1" creator="VisuGPX - https://www.visugpx.com">
  <metadata>
    <name>BOIS DE ROCHEFORT 7</name>
  </metadata>
  <trk>
    <name><![CDATA[BOIS DE ROCHEFORT 7]]></name>
    <trkseg>
      <trkpt lat="48.5922" lon="1.96656">
        <ele>43.88</ele>
        <time>2021-02-16T08:08:50Z</time>
      </trkpt>
      <trkpt lat="48.59221" lon="1.96656">
        <ele>44.36</ele>
        <time>2021-02-16T08:08:51Z</time>
      </trkpt>
      <trkpt lat="48.59186" lon="1.96604">
        <ele>49.65</ele>
        <time>2021-02-16T08:09:10Z</time>
      </trkpt>
      <trkpt lat="48.59183" lon="1.96599">
        <ele>54.93</ele>
        <time>2021-02-16T08:09:12Z</time>
      </trkpt>
      <trkpt lat="48.59181" lon="1.96596">
        <ele>60.22</ele>
        <time>2021-02-16T08:09:14Z</time>
      </trkpt>
      <trkpt lat="48.59179" lon="1.96594">
        <ele>65.03</ele>
        <time>2021-02-16T08:09:16Z</time>
      </trkpt>
      <trkpt lat="48.59175" lon="1.96589">
        <ele>69.35</ele>
        <time>2021-02-16T08:09:18Z</time>
      </trkpt>
      <trkpt lat="48.59172" lon="1.96585">
        <ele>73.2</ele>
        <time>2021-02-16T08:09:20Z</time>
      </trkpt>
      <trkpt lat="48.59172" lon="1.96584">
        <ele>76.56</ele>
        <time>2021-02-16T08:09:22Z</time>
      </trkpt>
      <trkpt lat="48.59174" lon="1.96585">
        <ele>79.93</ele>
        <time>2021-02-16T08:09:24Z</time>
      </trkpt>
      <trkpt lat="48.59177" lon="1.96586">
        <ele>83.77</ele>
        <time>2021-02-16T08:09:27Z</time>
      </trkpt>
      <trkpt lat="48.59178" lon="1.96586">
        <ele>87.62</ele>
        <time>2021-02-16T08:09:30Z</time>
      </trkpt>
      <trkpt lat="48.59178" lon="1.96586">
        <ele>91.46</ele>
        <time>2021-02-16T08:09:33Z</time>
      </trkpt>
      <trkpt lat="48.59178" lon="1.96586">
        <ele>94.83</ele>
        <time>2021-02-16T08:09:36Z</time>
      </trkpt>
      <trkpt lat="48.59177" lon="1.96588">
        <ele>97.71</ele>
        <time>2021-02-16T08:09:39Z</time>
      </trkpt>
      <trkpt lat="48.59177" lon="1.9659">
        <ele>100.6</ele>
        <time>2021-02-16T08:09:42Z</time>
      </trkpt>
      <trkpt lat="48.59176" lon="1.96593">
        <ele>104.92</ele>
        <time>2021-02-16T08:09:46Z</time>
      </trkpt>
      <trkpt lat="48.59177" lon="1.96596">
        <ele>108.29</ele>
        <time>2021-02-16T08:09:50Z</time>
      </trkpt>
      <trkpt lat="48.59178" lon="1.96596">
        <ele>112.13</ele>
        <time>2021-02-16T08:09:54Z</time>
      </trkpt>
      <trkpt lat="48.59179" lon="1.96597">
        <ele>115.5</ele>
        <time>2021-02-16T08:09:59Z</time>
      </trkpt>
      <trkpt lat="48.5918" lon="1.96594">
        <ele>118.86</ele>
        <time>2021-02-16T08:10:05Z</time>
      </trkpt>
      <trkpt lat="48.59178" lon="1.96594">
        <ele>122.22</ele>
        <time>2021-02-16T08:10:14Z</time>
      </trkpt>
      <trkpt lat="48.59175" lon="1.96595">
        <ele>124.63</ele>
        <time>2021-02-16T08:10:20Z</time>
      </trkpt>
      <trkpt lat="48.59168" lon="1.96596">
        <ele>127.51</ele>
        <time>2021-02-16T08:10:32Z</time>
      </trkpt>
      <trkpt lat="48.59171" lon="1.96603">
        <ele>129.43</ele>
        <time>2021-02-16T08:10:41Z</time>
      </trkpt>
      <trkpt lat="48.59173" lon="1.96606">
        <ele>130.88</ele>
        <time>2021-02-16T08:10:53Z</time>
      </trkpt>
      <trkpt lat="48.59172" lon="1.96603">
        <ele>130.4</ele>
        <time>2021-02-16T08:11:06Z</time>
      </trkpt>
      <trkpt lat="48.59171" lon="1.96605">
        <ele>130.88</ele>
        <time>2021-02-16T08:11:27Z</time>
      </trkpt>
      <trkpt lat="48.59172" lon="1.96605">
        <ele>130.88</ele>
        <time>2021-02-16T08:11:40Z</time>
      </trkpt>
      <trkpt lat="48.59172" lon="1.966">
        <ele>130.4</ele>
        <time>2021-02-16T08:11:57Z</time>
      </trkpt>
      <trkpt lat="48.59169" lon="1.96595">
        <ele>129.43</ele>
        <time>2021-02-16T08:12:14Z</time>
      </trkpt>
      <trkpt lat="48.59162" lon="1.96597">
        <ele>129.43</ele>
        <time>2021-02-16T08:12:28Z</time>
      </trkpt>
      <trkpt lat="48.5916" lon="1.9661">
        <ele>129.92</ele>
        <time>2021-02-16T08:12:43Z</time>
      </trkpt>
      <trkpt lat="48.59155" lon="1.96637">
        <ele>129.92</ele>
        <time>2021-02-16T08:13:02Z</time>
      </trkpt>
      <trkpt lat="48.59155" lon="1.96659">
        <ele>129.43</ele>
        <time>2021-02-16T08:13:19Z</time>
      </trkpt>
      <trkpt lat="48.59148" lon="1.96692">
        <ele>128.95</ele>
        <time>2021-02-16T08:13:33Z</time>
      </trkpt>
      <trkpt lat="48.5914" lon="1.96716">
        <ele>128.95</ele>
        <time>2021-02-16T08:13:45Z</time>
      </trkpt>
      <trkpt lat="48.59129" lon="1.96738">
        <ele>128.47</ele>
        <time>2021-02-16T08:14:00Z</time>
      </trkpt>
      <trkpt lat="48.59125" lon="1.96757">
        <ele>127.99</ele>
        <time>2021-02-16T08:14:11Z</time>
      </trkpt>
      <trkpt lat="48.59119" lon="1.9678">
        <ele>127.03</ele>
        <time>2021-02-16T08:14:24Z</time>
      </trkpt>
      <trkpt lat="48.59112" lon="1.96805">
        <ele>127.51</ele>
        <time>2021-02-16T08:14:39Z</time>
      </trkpt>
      <trkpt lat="48.59108" lon="1.96832">
        <ele>127.03</ele>
        <time>2021-02-16T08:14:54Z</time>
      </trkpt>
      <trkpt lat="48.59099" lon="1.96855">
        <ele>127.03</ele>
        <time>2021-02-16T08:15:06Z</time>
      </trkpt>
      <trkpt lat="48.59091" lon="1.96886">
        <ele>126.07</ele>
        <time>2021-02-16T08:15:20Z</time>
      </trkpt>
      <trkpt lat="48.59085" lon="1.96921">
        <ele>127.03</ele>
        <time>2021-02-16T08:15:34Z</time>
      </trkpt>
      <trkpt lat="48.59072" lon="1.96944">
        <ele>127.03</ele>
        <time>2021-02-16T08:15:47Z</time>
      </trkpt>
      <trkpt lat="48.59068" lon="1.9697">
        <ele>127.03</ele>
        <time>2021-02-16T08:15:59Z</time>
      </trkpt>
      <trkpt lat="48.59063" lon="1.96994">
        <ele>127.03</ele>
        <time>2021-02-16T08:16:12Z</time>
      </trkpt>
      <trkpt lat="48.59058" lon="1.97026">
        <ele>126.55</ele>
        <time>2021-02-16T08:16:24Z</time>
      </trkpt>
      <trkpt lat="48.59056" lon="1.97056">
        <ele>126.55</ele>
        <time>2021-02-16T08:16:37Z</time>
      </trkpt>
      <trkpt lat="48.59046" lon="1.97081">
        <ele>126.07</ele>
        <time>2021-02-16T08:16:52Z</time>
      </trkpt>
      <trkpt lat="48.59042" lon="1.97112">
        <ele>125.59</ele>
        <time>2021-02-16T08:17:08Z</time>
      </trkpt>
      <trkpt lat="48.59037" lon="1.97133">
        <ele>125.59</ele>
        <time>2021-02-16T08:17:24Z</time>
      </trkpt>
      <trkpt lat="48.59034" lon="1.97159">
        <ele>125.59</ele>
        <time>2021-02-16T08:17:38Z</time>
      </trkpt>
      <trkpt lat="48.59027" lon="1.9719">
        <ele>125.59</ele>
        <time>2021-02-16T08:17:52Z</time>
      </trkpt>
      <trkpt lat="48.59028" lon="1.97272">
        <ele>126.07</ele>
        <time>2021-02-16T08:18:07Z</time>
      </trkpt>
      <trkpt lat="48.59039" lon="1.97279">
        <ele>126.55</ele>
        <time>2021-02-16T08:18:21Z</time>
      </trkpt>
      <trkpt lat="48.59053" lon="1.97289">
        <ele>127.03</ele>
        <time>2021-02-16T08:18:36Z</time>
      </trkpt>
      <trkpt lat="48.59073" lon="1.97303">
        <ele>127.99</ele>
        <time>2021-02-16T08:18:53Z</time>
      </trkpt>
      <trkpt lat="48.59093" lon="1.97319">
        <ele>128.95</ele>
        <time>2021-02-16T08:19:11Z</time>
      </trkpt>
      <trkpt lat="48.59109" lon="1.97334">
        <ele>129.92</ele>
        <time>2021-02-16T08:19:25Z</time>
      </trkpt>
      <trkpt lat="48.59128" lon="1.9735">
        <ele>130.88</ele>
        <time>2021-02-16T08:19:43Z</time>
      </trkpt>
      <trkpt lat="48.59149" lon="1.97368">
        <ele>131.36</ele>
        <time>2021-02-16T08:19:59Z</time>
      </trkpt>
      <trkpt lat="48.59166" lon="1.97383">
        <ele>132.32</ele>
        <time>2021-02-16T08:20:13Z</time>
      </trkpt>
      <trkpt lat="48.5918" lon="1.97395">
        <ele>133.76</ele>
        <time>2021-02-16T08:20:30Z</time>
      </trkpt>
      <trkpt lat="48.59193" lon="1.97411">
        <ele>135.2</ele>
        <time>2021-02-16T08:20:47Z</time>
      </trkpt>
      <trkpt lat="48.59217" lon="1.97422">
        <ele>137.13</ele>
        <time>2021-02-16T08:21:02Z</time>
      </trkpt>
      <trkpt lat="48.59224" lon="1.97419">
        <ele>138.09</ele>
        <time>2021-02-16T08:21:18Z</time>
      </trkpt>
      <trkpt lat="48.59251" lon="1.97417">
        <ele>139.53</ele>
        <time>2021-02-16T08:21:33Z</time>
      </trkpt>
      <trkpt lat="48.59268" lon="1.97418">
        <ele>141.45</ele>
        <time>2021-02-16T08:21:49Z</time>
      </trkpt>
      <trkpt lat="48.59286" lon="1.97418">
        <ele>143.37</ele>
        <time>2021-02-16T08:22:05Z</time>
      </trkpt>
      <trkpt lat="48.59302" lon="1.9742">
        <ele>144.82</ele>
        <time>2021-02-16T08:22:21Z</time>
      </trkpt>
      <trkpt lat="48.59325" lon="1.97417">
        <ele>147.22</ele>
        <time>2021-02-16T08:22:35Z</time>
      </trkpt>
      <trkpt lat="48.59357" lon="1.97419">
        <ele>147.22</ele>
        <time>2021-02-16T08:22:50Z</time>
      </trkpt>
      <trkpt lat="48.59376" lon="1.97421">
        <ele>148.18</ele>
        <time>2021-02-16T08:23:06Z</time>
      </trkpt>
      <trkpt lat="48.5939" lon="1.97425">
        <ele>150.1</ele>
        <time>2021-02-16T08:23:22Z</time>
      </trkpt>
      <trkpt lat="48.59416" lon="1.97429">
        <ele>152.03</ele>
        <time>2021-02-16T08:23:42Z</time>
      </trkpt>
      <trkpt lat="48.59464" lon="1.97436">
        <ele>153.47</ele>
        <time>2021-02-16T08:24:02Z</time>
      </trkpt>
      <trkpt lat="48.59471" lon="1.97436">
        <ele>152.51</ele>
        <time>2021-02-16T08:24:15Z</time>
      </trkpt>
      <trkpt lat="48.59472" lon="1.97436">
        <ele>152.99</ele>
        <time>2021-02-16T08:24:38Z</time>
      </trkpt>
      <trkpt lat="48.59473" lon="1.97441">
        <ele>152.99</ele>
        <time>2021-02-16T08:24:56Z</time>
      </trkpt>
      <trkpt lat="48.59471" lon="1.97465">
        <ele>153.47</ele>
        <time>2021-02-16T08:25:09Z</time>
      </trkpt>
      <trkpt lat="48.59474" lon="1.97489">
        <ele>154.91</ele>
        <time>2021-02-16T08:25:24Z</time>
      </trkpt>
      <trkpt lat="48.59476" lon="1.97509">
        <ele>155.39</ele>
        <time>2021-02-16T08:25:36Z</time>
      </trkpt>
      <trkpt lat="48.59467" lon="1.97539">
        <ele>156.83</ele>
        <time>2021-02-16T08:25:51Z</time>
      </trkpt>
      <trkpt lat="48.59463" lon="1.97546">
        <ele>156.83</ele>
        <time>2021-02-16T08:25:55Z</time>
      </trkpt>
      <trkpt lat="48.59445" lon="1.97573">
        <ele>158.27</ele>
        <time>2021-02-16T08:26:11Z</time>
      </trkpt>
      <trkpt lat="48.59437" lon="1.97582">
        <ele>158.75</ele>
        <time>2021-02-16T08:26:23Z</time>
      </trkpt>
      <trkpt lat="48.59436" lon="1.97591">
        <ele>159.24</ele>
        <time>2021-02-16T08:26:28Z</time>
      </trkpt>
      <trkpt lat="48.59431" lon="1.97618">
        <ele>161.16</ele>
        <time>2021-02-16T08:26:43Z</time>
      </trkpt>
      <trkpt lat="48.59436" lon="1.97632">
        <ele>161.64</ele>
        <time>2021-02-16T08:26:53Z</time>
      </trkpt>
      <trkpt lat="48.59442" lon="1.97642">
        <ele>160.68</ele>
        <time>2021-02-16T08:27:07Z</time>
      </trkpt>
      <trkpt lat="48.59442" lon="1.97646">
        <ele>159.24</ele>
        <time>2021-02-16T08:27:25Z</time>
      </trkpt>
      <trkpt lat="48.59446" lon="1.97659">
        <ele>159.24</ele>
        <time>2021-02-16T08:27:42Z</time>
      </trkpt>
      <trkpt lat="48.59453" lon="1.97665">
        <ele>159.24</ele>
        <time>2021-02-16T08:27:54Z</time>
      </trkpt>
      <trkpt lat="48.59484" lon="1.97687">
        <ele>157.79</ele>
        <time>2021-02-16T08:28:11Z</time>
      </trkpt>
      <trkpt lat="48.5952" lon="1.97704">
        <ele>155.39</ele>
        <time>2021-02-16T08:28:28Z</time>
      </trkpt>
      <trkpt lat="48.59556" lon="1.9772">
        <ele>154.43</ele>
        <time>2021-02-16T08:28:42Z</time>
      </trkpt>
      <trkpt lat="48.59588" lon="1.97732">
        <ele>152.51</ele>
        <time>2021-02-16T08:28:55Z</time>
      </trkpt>
      <trkpt lat="48.59607" lon="1.97745">
        <ele>150.58</ele>
        <time>2021-02-16T08:29:11Z</time>
      </trkpt>
      <trkpt lat="48.5962" lon="1.97749">
        <ele>148.66</ele>
        <time>2021-02-16T08:29:22Z</time>
      </trkpt>
      <trkpt lat="48.59648" lon="1.9776">
        <ele>146.26</ele>
        <time>2021-02-16T08:29:37Z</time>
      </trkpt>
      <trkpt lat="48.59657" lon="1.97769">
        <ele>143.37</ele>
        <time>2021-02-16T08:29:48Z</time>
      </trkpt>
      <trkpt lat="48.59662" lon="1.97789">
        <ele>141.93</ele>
        <time>2021-02-16T08:30:06Z</time>
      </trkpt>
      <trkpt lat="48.59655" lon="1.97805">
        <ele>142.89</ele>
        <time>2021-02-16T08:30:21Z</time>
      </trkpt>
      <trkpt lat="48.59647" lon="1.97825">
        <ele>146.26</ele>
        <time>2021-02-16T08:30:35Z</time>
      </trkpt>
      <trkpt lat="48.5964" lon="1.97839">
        <ele>148.18</ele>
        <time>2021-02-16T08:30:48Z</time>
      </trkpt>
      <trkpt lat="48.59616" lon="1.97831">
        <ele>151.06</ele>
        <time>2021-02-16T08:31:09Z</time>
      </trkpt>
      <trkpt lat="48.59598" lon="1.97839">
        <ele>153.95</ele>
        <time>2021-02-16T08:31:19Z</time>
      </trkpt>
      <trkpt lat="48.59596" lon="1.97838">
        <ele>155.87</ele>
        <time>2021-02-16T08:31:23Z</time>
      </trkpt>
      <trkpt lat="48.59586" lon="1.97838">
        <ele>158.75</ele>
        <time>2021-02-16T08:31:33Z</time>
      </trkpt>
      <trkpt lat="48.59579" lon="1.9784">
        <ele>161.64</ele>
        <time>2021-02-16T08:31:44Z</time>
      </trkpt>
      <trkpt lat="48.59573" lon="1.97834">
        <ele>165</ele>
        <time>2021-02-16T08:31:57Z</time>
      </trkpt>
      <trkpt lat="48.59564" lon="1.97826">
        <ele>165.48</ele>
        <time>2021-02-16T08:32:11Z</time>
      </trkpt>
      <trkpt lat="48.59548" lon="1.97815">
        <ele>167.89</ele>
        <time>2021-02-16T08:32:27Z</time>
      </trkpt>
      <trkpt lat="48.59534" lon="1.97818">
        <ele>168.37</ele>
        <time>2021-02-16T08:32:46Z</time>
      </trkpt>
      <trkpt lat="48.59501" lon="1.97811">
        <ele>169.33</ele>
        <time>2021-02-16T08:33:00Z</time>
      </trkpt>
      <trkpt lat="48.59488" lon="1.97815">
        <ele>169.81</ele>
        <time>2021-02-16T08:33:10Z</time>
      </trkpt>
      <trkpt lat="48.59481" lon="1.97829">
        <ele>169.33</ele>
        <time>2021-02-16T08:33:22Z</time>
      </trkpt>
      <trkpt lat="48.59476" lon="1.97844">
        <ele>169.33</ele>
        <time>2021-02-16T08:33:37Z</time>
      </trkpt>
      <trkpt lat="48.59477" lon="1.97851">
        <ele>169.33</ele>
        <time>2021-02-16T08:33:52Z</time>
      </trkpt>
      <trkpt lat="48.5948" lon="1.97853">
        <ele>169.33</ele>
        <time>2021-02-16T08:34:10Z</time>
      </trkpt>
      <trkpt lat="48.59485" lon="1.97877">
        <ele>169.81</ele>
        <time>2021-02-16T08:34:22Z</time>
      </trkpt>
      <trkpt lat="48.59495" lon="1.97895">
        <ele>168.85</ele>
        <time>2021-02-16T08:34:37Z</time>
      </trkpt>
      <trkpt lat="48.59505" lon="1.97922">
        <ele>168.37</ele>
        <time>2021-02-16T08:34:52Z</time>
      </trkpt>
      <trkpt lat="48.59507" lon="1.97934">
        <ele>167.89</ele>
        <time>2021-02-16T08:35:05Z</time>
      </trkpt>
      <trkpt lat="48.59514" lon="1.97956">
        <ele>167.41</ele>
        <time>2021-02-16T08:35:20Z</time>
      </trkpt>
      <trkpt lat="48.59524" lon="1.97989">
        <ele>166.93</ele>
        <time>2021-02-16T08:35:34Z</time>
      </trkpt>
      <trkpt lat="48.59526" lon="1.98026">
        <ele>165.96</ele>
        <time>2021-02-16T08:35:52Z</time>
      </trkpt>
      <trkpt lat="48.59533" lon="1.98045">
        <ele>165.48</ele>
        <time>2021-02-16T08:36:08Z</time>
      </trkpt>
      <trkpt lat="48.59541" lon="1.98076">
        <ele>164.52</ele>
        <time>2021-02-16T08:36:22Z</time>
      </trkpt>
      <trkpt lat="48.59547" lon="1.98101">
        <ele>163.56</ele>
        <time>2021-02-16T08:36:34Z</time>
      </trkpt>
      <trkpt lat="48.59557" lon="1.98142">
        <ele>162.12</ele>
        <time>2021-02-16T08:36:49Z</time>
      </trkpt>
      <trkpt lat="48.59569" lon="1.98172">
        <ele>161.16</ele>
        <time>2021-02-16T08:37:02Z</time>
      </trkpt>
      <trkpt lat="48.59575" lon="1.98181">
        <ele>160.68</ele>
        <time>2021-02-16T08:37:06Z</time>
      </trkpt>
      <trkpt lat="48.59581" lon="1.98195">
        <ele>160.68</ele>
        <time>2021-02-16T08:37:13Z</time>
      </trkpt>
      <trkpt lat="48.59593" lon="1.98215">
        <ele>159.72</ele>
        <time>2021-02-16T08:37:26Z</time>
      </trkpt>
      <trkpt lat="48.59596" lon="1.98219">
        <ele>159.72</ele>
        <time>2021-02-16T08:37:29Z</time>
      </trkpt>
      <trkpt lat="48.59615" lon="1.98239">
        <ele>156.83</ele>
        <time>2021-02-16T08:37:45Z</time>
      </trkpt>
      <trkpt lat="48.59618" lon="1.98242">
        <ele>156.35</ele>
        <time>2021-02-16T08:37:48Z</time>
      </trkpt>
      <trkpt lat="48.59634" lon="1.98268">
        <ele>153.95</ele>
        <time>2021-02-16T08:38:05Z</time>
      </trkpt>
      <trkpt lat="48.59635" lon="1.98269">
        <ele>153.95</ele>
        <time>2021-02-16T08:38:06Z</time>
      </trkpt>
      <trkpt lat="48.59637" lon="1.98279">
        <ele>153.47</ele>
        <time>2021-02-16T08:38:10Z</time>
      </trkpt>
      <trkpt lat="48.5964" lon="1.98285">
        <ele>152.99</ele>
        <time>2021-02-16T08:38:14Z</time>
      </trkpt>
      <trkpt lat="48.59651" lon="1.98306">
        <ele>152.51</ele>
        <time>2021-02-16T08:38:29Z</time>
      </trkpt>
      <trkpt lat="48.5966" lon="1.98339">
        <ele>152.51</ele>
        <time>2021-02-16T08:38:43Z</time>
      </trkpt>
      <trkpt lat="48.59666" lon="1.9835">
        <ele>152.51</ele>
        <time>2021-02-16T08:38:50Z</time>
      </trkpt>
      <trkpt lat="48.5968" lon="1.9838">
        <ele>152.99</ele>
        <time>2021-02-16T08:39:07Z</time>
      </trkpt>
      <trkpt lat="48.59691" lon="1.98398">
        <ele>152.99</ele>
        <time>2021-02-16T08:39:20Z</time>
      </trkpt>
      <trkpt lat="48.59691" lon="1.98415">
        <ele>152.99</ele>
        <time>2021-02-16T08:39:32Z</time>
      </trkpt>
      <trkpt lat="48.59696" lon="1.98441">
        <ele>152.99</ele>
        <time>2021-02-16T08:39:48Z</time>
      </trkpt>
      <trkpt lat="48.59693" lon="1.98473">
        <ele>152.51</ele>
        <time>2021-02-16T08:40:01Z</time>
      </trkpt>
      <trkpt lat="48.59693" lon="1.9852">
        <ele>152.03</ele>
        <time>2021-02-16T08:40:16Z</time>
      </trkpt>
      <trkpt lat="48.59696" lon="1.98539">
        <ele>151.06</ele>
        <time>2021-02-16T08:40:31Z</time>
      </trkpt>
      <trkpt lat="48.59698" lon="1.98569">
        <ele>149.14</ele>
        <time>2021-02-16T08:40:46Z</time>
      </trkpt>
      <trkpt lat="48.597" lon="1.98606">
        <ele>145.78</ele>
        <time>2021-02-16T08:41:03Z</time>
      </trkpt>
      <trkpt lat="48.59701" lon="1.98611">
        <ele>142.89</ele>
        <time>2021-02-16T08:41:13Z</time>
      </trkpt>
      <trkpt lat="48.59701" lon="1.98618">
        <ele>139.53</ele>
        <time>2021-02-16T08:41:23Z</time>
      </trkpt>
      <trkpt lat="48.59697" lon="1.98639">
        <ele>136.64</ele>
        <time>2021-02-16T08:41:33Z</time>
      </trkpt>
      <trkpt lat="48.59692" lon="1.98664">
        <ele>133.28</ele>
        <time>2021-02-16T08:41:45Z</time>
      </trkpt>
      <trkpt lat="48.59684" lon="1.9868">
        <ele>131.36</ele>
        <time>2021-02-16T08:41:57Z</time>
      </trkpt>
      <trkpt lat="48.59679" lon="1.98695">
        <ele>129.43</ele>
        <time>2021-02-16T08:42:10Z</time>
      </trkpt>
      <trkpt lat="48.59659" lon="1.987">
        <ele>128.95</ele>
        <time>2021-02-16T08:42:24Z</time>
      </trkpt>
      <trkpt lat="48.59651" lon="1.98694">
        <ele>129.43</ele>
        <time>2021-02-16T08:42:29Z</time>
      </trkpt>
      <trkpt lat="48.59635" lon="1.98688">
        <ele>128.95</ele>
        <time>2021-02-16T08:42:43Z</time>
      </trkpt>
      <trkpt lat="48.59619" lon="1.98705">
        <ele>127.99</ele>
        <time>2021-02-16T08:42:54Z</time>
      </trkpt>
      <trkpt lat="48.59607" lon="1.98724">
        <ele>127.03</ele>
        <time>2021-02-16T08:43:08Z</time>
      </trkpt>
      <trkpt lat="48.59594" lon="1.98744">
        <ele>126.55</ele>
        <time>2021-02-16T08:43:20Z</time>
      </trkpt>
      <trkpt lat="48.59591" lon="1.98747">
        <ele>126.55</ele>
        <time>2021-02-16T08:43:22Z</time>
      </trkpt>
      <trkpt lat="48.59569" lon="1.98768">
        <ele>127.99</ele>
        <time>2021-02-16T08:43:38Z</time>
      </trkpt>
      <trkpt lat="48.59559" lon="1.98773">
        <ele>128.47</ele>
        <time>2021-02-16T08:43:47Z</time>
      </trkpt>
      <trkpt lat="48.5955" lon="1.98793">
        <ele>127.51</ele>
        <time>2021-02-16T08:44:02Z</time>
      </trkpt>
      <trkpt lat="48.5955" lon="1.98799">
        <ele>127.51</ele>
        <time>2021-02-16T08:44:18Z</time>
      </trkpt>
      <trkpt lat="48.5955" lon="1.98798">
        <ele>127.99</ele>
        <time>2021-02-16T08:44:40Z</time>
      </trkpt>
      <trkpt lat="48.59549" lon="1.98793">
        <ele>127.51</ele>
        <time>2021-02-16T08:45:02Z</time>
      </trkpt>
      <trkpt lat="48.59548" lon="1.98792">
        <ele>127.03</ele>
        <time>2021-02-16T08:45:24Z</time>
      </trkpt>
      <trkpt lat="48.59563" lon="1.98795">
        <ele>127.51</ele>
        <time>2021-02-16T08:45:38Z</time>
      </trkpt>
      <trkpt lat="48.59587" lon="1.98795">
        <ele>127.03</ele>
        <time>2021-02-16T08:45:53Z</time>
      </trkpt>
      <trkpt lat="48.59605" lon="1.98793">
        <ele>126.07</ele>
        <time>2021-02-16T08:46:07Z</time>
      </trkpt>
      <trkpt lat="48.59625" lon="1.9879">
        <ele>125.11</ele>
        <time>2021-02-16T08:46:21Z</time>
      </trkpt>
      <trkpt lat="48.5965" lon="1.98791">
        <ele>123.19</ele>
        <time>2021-02-16T08:46:39Z</time>
      </trkpt>
      <trkpt lat="48.5967" lon="1.98787">
        <ele>122.22</ele>
        <time>2021-02-16T08:46:55Z</time>
      </trkpt>
      <trkpt lat="48.59684" lon="1.98789">
        <ele>120.78</ele>
        <time>2021-02-16T08:47:08Z</time>
      </trkpt>
      <trkpt lat="48.5971" lon="1.98788">
        <ele>119.82</ele>
        <time>2021-02-16T08:47:25Z</time>
      </trkpt>
      <trkpt lat="48.59741" lon="1.98792">
        <ele>118.86</ele>
        <time>2021-02-16T08:47:41Z</time>
      </trkpt>
      <trkpt lat="48.59758" lon="1.98795">
        <ele>117.9</ele>
        <time>2021-02-16T08:47:55Z</time>
      </trkpt>
      <trkpt lat="48.59774" lon="1.98792">
        <ele>117.42</ele>
        <time>2021-02-16T08:48:09Z</time>
      </trkpt>
      <trkpt lat="48.598" lon="1.98794">
        <ele>115.98</ele>
        <time>2021-02-16T08:48:26Z</time>
      </trkpt>
      <trkpt lat="48.59822" lon="1.98793">
        <ele>115.01</ele>
        <time>2021-02-16T08:48:43Z</time>
      </trkpt>
      <trkpt lat="48.59841" lon="1.98789">
        <ele>114.53</ele>
        <time>2021-02-16T08:48:58Z</time>
      </trkpt>
      <trkpt lat="48.59853" lon="1.98781">
        <ele>114.05</ele>
        <time>2021-02-16T08:49:12Z</time>
      </trkpt>
      <trkpt lat="48.59868" lon="1.98778">
        <ele>113.09</ele>
        <time>2021-02-16T08:49:24Z</time>
      </trkpt>
      <trkpt lat="48.59897" lon="1.98772">
        <ele>112.13</ele>
        <time>2021-02-16T08:49:39Z</time>
      </trkpt>
      <trkpt lat="48.59927" lon="1.98765">
        <ele>111.17</ele>
        <time>2021-02-16T08:49:56Z</time>
      </trkpt>
      <trkpt lat="48.59949" lon="1.98759">
        <ele>110.69</ele>
        <time>2021-02-16T08:50:11Z</time>
      </trkpt>
      <trkpt lat="48.59961" lon="1.98755">
        <ele>111.17</ele>
        <time>2021-02-16T08:50:24Z</time>
      </trkpt>
      <trkpt lat="48.59984" lon="1.98752">
        <ele>109.73</ele>
        <time>2021-02-16T08:50:35Z</time>
      </trkpt>
      <trkpt lat="48.59997" lon="1.98748">
        <ele>109.73</ele>
        <time>2021-02-16T08:50:51Z</time>
      </trkpt>
      <trkpt lat="48.60011" lon="1.98745">
        <ele>109.73</ele>
        <time>2021-02-16T08:51:05Z</time>
      </trkpt>
      <trkpt lat="48.60029" lon="1.98735">
        <ele>109.73</ele>
        <time>2021-02-16T08:51:20Z</time>
      </trkpt>
      <trkpt lat="48.60046" lon="1.98732">
        <ele>109.73</ele>
        <time>2021-02-16T08:51:28Z</time>
      </trkpt>
      <trkpt lat="48.60066" lon="1.98723">
        <ele>110.69</ele>
        <time>2021-02-16T08:51:44Z</time>
      </trkpt>
      <trkpt lat="48.60071" lon="1.98714">
        <ele>112.13</ele>
        <time>2021-02-16T08:51:59Z</time>
      </trkpt>
      <trkpt lat="48.60092" lon="1.98697">
        <ele>112.61</ele>
        <time>2021-02-16T08:52:15Z</time>
      </trkpt>
      <trkpt lat="48.60109" lon="1.98676">
        <ele>112.13</ele>
        <time>2021-02-16T08:52:33Z</time>
      </trkpt>
      <trkpt lat="48.60145" lon="1.98663">
        <ele>112.13</ele>
        <time>2021-02-16T08:52:46Z</time>
      </trkpt>
      <trkpt lat="48.60157" lon="1.98651">
        <ele>111.65</ele>
        <time>2021-02-16T08:52:58Z</time>
      </trkpt>
      <trkpt lat="48.60172" lon="1.98632">
        <ele>111.17</ele>
        <time>2021-02-16T08:53:15Z</time>
      </trkpt>
      <trkpt lat="48.60193" lon="1.98613">
        <ele>109.25</ele>
        <time>2021-02-16T08:53:33Z</time>
      </trkpt>
      <trkpt lat="48.60204" lon="1.98599">
        <ele>108.77</ele>
        <time>2021-02-16T08:53:48Z</time>
      </trkpt>
      <trkpt lat="48.60206" lon="1.98595">
        <ele>108.29</ele>
        <time>2021-02-16T08:53:51Z</time>
      </trkpt>
      <trkpt lat="48.60234" lon="1.98577">
        <ele>107.81</ele>
        <time>2021-02-16T08:54:08Z</time>
      </trkpt>
      <trkpt lat="48.60241" lon="1.98557">
        <ele>108.77</ele>
        <time>2021-02-16T08:54:25Z</time>
      </trkpt>
      <trkpt lat="48.60242" lon="1.98539">
        <ele>107.81</ele>
        <time>2021-02-16T08:54:41Z</time>
      </trkpt>
      <trkpt lat="48.60268" lon="1.98506">
        <ele>107.32</ele>
        <time>2021-02-16T08:54:58Z</time>
      </trkpt>
      <trkpt lat="48.60269" lon="1.98503">
        <ele>107.81</ele>
        <time>2021-02-16T08:54:59Z</time>
      </trkpt>
      <trkpt lat="48.60299" lon="1.98477">
        <ele>108.29</ele>
        <time>2021-02-16T08:55:14Z</time>
      </trkpt>
      <trkpt lat="48.60306" lon="1.98456">
        <ele>108.77</ele>
        <time>2021-02-16T08:55:31Z</time>
      </trkpt>
      <trkpt lat="48.60314" lon="1.98445">
        <ele>107.81</ele>
        <time>2021-02-16T08:55:47Z</time>
      </trkpt>
      <trkpt lat="48.60328" lon="1.98424">
        <ele>106.84</ele>
        <time>2021-02-16T08:56:00Z</time>
      </trkpt>
      <trkpt lat="48.60369" lon="1.98405">
        <ele>105.88</ele>
        <time>2021-02-16T08:56:16Z</time>
      </trkpt>
      <trkpt lat="48.60377" lon="1.98397">
        <ele>104.44</ele>
        <time>2021-02-16T08:56:31Z</time>
      </trkpt>
      <trkpt lat="48.60388" lon="1.98388">
        <ele>103.96</ele>
        <time>2021-02-16T08:56:49Z</time>
      </trkpt>
      <trkpt lat="48.60419" lon="1.98378">
        <ele>103.48</ele>
        <time>2021-02-16T08:57:02Z</time>
      </trkpt>
      <trkpt lat="48.60429" lon="1.98372">
        <ele>103.48</ele>
        <time>2021-02-16T08:57:16Z</time>
      </trkpt>
      <trkpt lat="48.60455" lon="1.98367">
        <ele>103.96</ele>
        <time>2021-02-16T08:57:31Z</time>
      </trkpt>
      <trkpt lat="48.60457" lon="1.98366">
        <ele>103.48</ele>
        <time>2021-02-16T08:57:33Z</time>
      </trkpt>
      <trkpt lat="48.60473" lon="1.98363">
        <ele>103.96</ele>
        <time>2021-02-16T08:57:50Z</time>
      </trkpt>
      <trkpt lat="48.60498" lon="1.98362">
        <ele>103.96</ele>
        <time>2021-02-16T08:58:05Z</time>
      </trkpt>
      <trkpt lat="48.60521" lon="1.9836">
        <ele>104.44</ele>
        <time>2021-02-16T08:58:21Z</time>
      </trkpt>
      <trkpt lat="48.60526" lon="1.98346">
        <ele>104.92</ele>
        <time>2021-02-16T08:58:36Z</time>
      </trkpt>
      <trkpt lat="48.60519" lon="1.98336">
        <ele>105.4</ele>
        <time>2021-02-16T08:58:46Z</time>
      </trkpt>
      <trkpt lat="48.60518" lon="1.98337">
        <ele>105.4</ele>
        <time>2021-02-16T08:58:49Z</time>
      </trkpt>
      <trkpt lat="48.60508" lon="1.98329">
        <ele>105.4</ele>
        <time>2021-02-16T08:58:53Z</time>
      </trkpt>
      <trkpt lat="48.60505" lon="1.98327">
        <ele>104.92</ele>
        <time>2021-02-16T08:58:55Z</time>
      </trkpt>
      <trkpt lat="48.60497" lon="1.9832">
        <ele>104.92</ele>
        <time>2021-02-16T08:59:06Z</time>
      </trkpt>
      <trkpt lat="48.60495" lon="1.98318">
        <ele>104.92</ele>
        <time>2021-02-16T08:59:09Z</time>
      </trkpt>
      <trkpt lat="48.60478" lon="1.98297">
        <ele>105.4</ele>
        <time>2021-02-16T08:59:24Z</time>
      </trkpt>
      <trkpt lat="48.60463" lon="1.98279">
        <ele>105.4</ele>
        <time>2021-02-16T08:59:39Z</time>
      </trkpt>
      <trkpt lat="48.60442" lon="1.98258">
        <ele>104.92</ele>
        <time>2021-02-16T08:59:54Z</time>
      </trkpt>
      <trkpt lat="48.60426" lon="1.98244">
        <ele>104.92</ele>
        <time>2021-02-16T09:00:09Z</time>
      </trkpt>
      <trkpt lat="48.60412" lon="1.98232">
        <ele>105.4</ele>
        <time>2021-02-16T09:00:20Z</time>
      </trkpt>
      <trkpt lat="48.604" lon="1.98216">
        <ele>105.88</ele>
        <time>2021-02-16T09:00:34Z</time>
      </trkpt>
      <trkpt lat="48.60382" lon="1.98196">
        <ele>105.88</ele>
        <time>2021-02-16T09:00:47Z</time>
      </trkpt>
      <trkpt lat="48.60378" lon="1.98191">
        <ele>105.88</ele>
        <time>2021-02-16T09:00:50Z</time>
      </trkpt>
      <trkpt lat="48.60358" lon="1.98173">
        <ele>106.84</ele>
        <time>2021-02-16T09:01:06Z</time>
      </trkpt>
      <trkpt lat="48.60343" lon="1.98159">
        <ele>107.32</ele>
        <time>2021-02-16T09:01:19Z</time>
      </trkpt>
      <trkpt lat="48.60343" lon="1.98158">
        <ele>107.32</ele>
        <time>2021-02-16T09:01:41Z</time>
      </trkpt>
      <trkpt lat="48.60344" lon="1.98156">
        <ele>107.32</ele>
        <time>2021-02-16T09:02:02Z</time>
      </trkpt>
      <trkpt lat="48.60345" lon="1.98155">
        <ele>107.32</ele>
        <time>2021-02-16T09:02:29Z</time>
      </trkpt>
      <trkpt lat="48.60337" lon="1.98142">
        <ele>108.29</ele>
        <time>2021-02-16T09:02:46Z</time>
      </trkpt>
      <trkpt lat="48.60323" lon="1.98124">
        <ele>108.77</ele>
        <time>2021-02-16T09:03:01Z</time>
      </trkpt>
      <trkpt lat="48.60308" lon="1.98114">
        <ele>109.25</ele>
        <time>2021-02-16T09:03:18Z</time>
      </trkpt>
      <trkpt lat="48.60292" lon="1.98094">
        <ele>109.73</ele>
        <time>2021-02-16T09:03:32Z</time>
      </trkpt>
      <trkpt lat="48.60279" lon="1.9808">
        <ele>109.25</ele>
        <time>2021-02-16T09:03:47Z</time>
      </trkpt>
      <trkpt lat="48.60272" lon="1.98075">
        <ele>108.77</ele>
        <time>2021-02-16T09:03:52Z</time>
      </trkpt>
      <trkpt lat="48.60254" lon="1.98056">
        <ele>110.21</ele>
        <time>2021-02-16T09:04:06Z</time>
      </trkpt>
      <trkpt lat="48.60253" lon="1.98054">
        <ele>110.21</ele>
        <time>2021-02-16T09:04:07Z</time>
      </trkpt>
      <trkpt lat="48.60238" lon="1.98042">
        <ele>111.17</ele>
        <time>2021-02-16T09:04:21Z</time>
      </trkpt>
      <trkpt lat="48.60223" lon="1.98025">
        <ele>111.65</ele>
        <time>2021-02-16T09:04:36Z</time>
      </trkpt>
      <trkpt lat="48.60218" lon="1.98018">
        <ele>111.65</ele>
        <time>2021-02-16T09:04:41Z</time>
      </trkpt>
      <trkpt lat="48.60212" lon="1.98013">
        <ele>111.65</ele>
        <time>2021-02-16T09:04:46Z</time>
      </trkpt>
      <trkpt lat="48.60206" lon="1.98005">
        <ele>111.65</ele>
        <time>2021-02-16T09:04:51Z</time>
      </trkpt>
      <trkpt lat="48.60201" lon="1.98">
        <ele>112.13</ele>
        <time>2021-02-16T09:04:55Z</time>
      </trkpt>
      <trkpt lat="48.60182" lon="1.97983">
        <ele>112.61</ele>
        <time>2021-02-16T09:05:12Z</time>
      </trkpt>
      <trkpt lat="48.60168" lon="1.97964">
        <ele>112.13</ele>
        <time>2021-02-16T09:05:25Z</time>
      </trkpt>
      <trkpt lat="48.60164" lon="1.97961">
        <ele>112.13</ele>
        <time>2021-02-16T09:05:29Z</time>
      </trkpt>
      <trkpt lat="48.60152" lon="1.97955">
        <ele>112.13</ele>
        <time>2021-02-16T09:05:39Z</time>
      </trkpt>
      <trkpt lat="48.60137" lon="1.97938">
        <ele>112.61</ele>
        <time>2021-02-16T09:05:55Z</time>
      </trkpt>
      <trkpt lat="48.60122" lon="1.9792">
        <ele>113.09</ele>
        <time>2021-02-16T09:06:10Z</time>
      </trkpt>
      <trkpt lat="48.60112" lon="1.97908">
        <ele>113.57</ele>
        <time>2021-02-16T09:06:19Z</time>
      </trkpt>
      <trkpt lat="48.60109" lon="1.97906">
        <ele>113.57</ele>
        <time>2021-02-16T09:06:21Z</time>
      </trkpt>
      <trkpt lat="48.601" lon="1.97899">
        <ele>113.57</ele>
        <time>2021-02-16T09:06:29Z</time>
      </trkpt>
      <trkpt lat="48.60096" lon="1.97893">
        <ele>113.57</ele>
        <time>2021-02-16T09:06:34Z</time>
      </trkpt>
      <trkpt lat="48.6008" lon="1.97869">
        <ele>113.57</ele>
        <time>2021-02-16T09:06:49Z</time>
      </trkpt>
      <trkpt lat="48.60064" lon="1.97854">
        <ele>114.05</ele>
        <time>2021-02-16T09:07:05Z</time>
      </trkpt>
      <trkpt lat="48.60042" lon="1.97828">
        <ele>114.53</ele>
        <time>2021-02-16T09:07:23Z</time>
      </trkpt>
      <trkpt lat="48.60024" lon="1.9781">
        <ele>114.53</ele>
        <time>2021-02-16T09:07:38Z</time>
      </trkpt>
      <trkpt lat="48.60008" lon="1.97792">
        <ele>116.46</ele>
        <time>2021-02-16T09:07:53Z</time>
      </trkpt>
      <trkpt lat="48.60003" lon="1.97776">
        <ele>115.98</ele>
        <time>2021-02-16T09:08:03Z</time>
      </trkpt>
      <trkpt lat="48.59995" lon="1.97749">
        <ele>115.5</ele>
        <time>2021-02-16T09:08:20Z</time>
      </trkpt>
      <trkpt lat="48.59989" lon="1.97727">
        <ele>115.5</ele>
        <time>2021-02-16T09:08:30Z</time>
      </trkpt>
      <trkpt lat="48.5999" lon="1.97704">
        <ele>115.98</ele>
        <time>2021-02-16T09:08:43Z</time>
      </trkpt>
      <trkpt lat="48.5999" lon="1.97689">
        <ele>116.46</ele>
        <time>2021-02-16T09:08:46Z</time>
      </trkpt>
      <trkpt lat="48.59989" lon="1.97677">
        <ele>116.94</ele>
        <time>2021-02-16T09:08:50Z</time>
      </trkpt>
      <trkpt lat="48.59998" lon="1.97657">
        <ele>117.9</ele>
        <time>2021-02-16T09:09:02Z</time>
      </trkpt>
      <trkpt lat="48.60009" lon="1.97638">
        <ele>119.34</ele>
        <time>2021-02-16T09:09:17Z</time>
      </trkpt>
      <trkpt lat="48.60024" lon="1.97617">
        <ele>119.82</ele>
        <time>2021-02-16T09:09:31Z</time>
      </trkpt>
      <trkpt lat="48.60037" lon="1.97592">
        <ele>120.78</ele>
        <time>2021-02-16T09:09:45Z</time>
      </trkpt>
      <trkpt lat="48.60047" lon="1.97572">
        <ele>121.26</ele>
        <time>2021-02-16T09:09:58Z</time>
      </trkpt>
      <trkpt lat="48.6006" lon="1.97544">
        <ele>122.71</ele>
        <time>2021-02-16T09:10:13Z</time>
      </trkpt>
      <trkpt lat="48.60069" lon="1.9752">
        <ele>123.67</ele>
        <time>2021-02-16T09:10:27Z</time>
      </trkpt>
      <trkpt lat="48.60073" lon="1.97507">
        <ele>124.15</ele>
        <time>2021-02-16T09:10:34Z</time>
      </trkpt>
      <trkpt lat="48.60088" lon="1.97488">
        <ele>125.59</ele>
        <time>2021-02-16T09:10:48Z</time>
      </trkpt>
      <trkpt lat="48.60089" lon="1.97482">
        <ele>126.07</ele>
        <time>2021-02-16T09:10:52Z</time>
      </trkpt>
      <trkpt lat="48.60093" lon="1.97473">
        <ele>127.03</ele>
        <time>2021-02-16T09:10:56Z</time>
      </trkpt>
      <trkpt lat="48.60102" lon="1.97448">
        <ele>129.92</ele>
        <time>2021-02-16T09:11:11Z</time>
      </trkpt>
      <trkpt lat="48.60106" lon="1.97443">
        <ele>130.88</ele>
        <time>2021-02-16T09:11:16Z</time>
      </trkpt>
      <trkpt lat="48.60113" lon="1.97421">
        <ele>133.76</ele>
        <time>2021-02-16T09:11:28Z</time>
      </trkpt>
      <trkpt lat="48.6012" lon="1.97402">
        <ele>137.13</ele>
        <time>2021-02-16T09:11:39Z</time>
      </trkpt>
      <trkpt lat="48.60128" lon="1.97389">
        <ele>139.53</ele>
        <time>2021-02-16T09:11:51Z</time>
      </trkpt>
      <trkpt lat="48.60139" lon="1.9737">
        <ele>141.45</ele>
        <time>2021-02-16T09:12:05Z</time>
      </trkpt>
      <trkpt lat="48.60148" lon="1.97349">
        <ele>142.89</ele>
        <time>2021-02-16T09:12:18Z</time>
      </trkpt>
      <trkpt lat="48.60152" lon="1.97339">
        <ele>142.89</ele>
        <time>2021-02-16T09:12:26Z</time>
      </trkpt>
      <trkpt lat="48.60155" lon="1.97332">
        <ele>143.37</ele>
        <time>2021-02-16T09:12:39Z</time>
      </trkpt>
      <trkpt lat="48.60154" lon="1.9733">
        <ele>142.89</ele>
        <time>2021-02-16T09:13:04Z</time>
      </trkpt>
      <trkpt lat="48.60154" lon="1.97328">
        <ele>142.89</ele>
        <time>2021-02-16T09:13:21Z</time>
      </trkpt>
      <trkpt lat="48.60155" lon="1.97328">
        <ele>142.89</ele>
        <time>2021-02-16T09:13:45Z</time>
      </trkpt>
      <trkpt lat="48.60155" lon="1.97329">
        <ele>142.41</ele>
        <time>2021-02-16T09:14:03Z</time>
      </trkpt>
      <trkpt lat="48.60152" lon="1.97329">
        <ele>142.41</ele>
        <time>2021-02-16T09:14:15Z</time>
      </trkpt>
      <trkpt lat="48.60154" lon="1.9733">
        <ele>142.41</ele>
        <time>2021-02-16T09:14:34Z</time>
      </trkpt>
      <trkpt lat="48.60153" lon="1.97331">
        <ele>142.41</ele>
        <time>2021-02-16T09:15:02Z</time>
      </trkpt>
      <trkpt lat="48.60155" lon="1.97333">
        <ele>141.93</ele>
        <time>2021-02-16T09:15:17Z</time>
      </trkpt>
      <trkpt lat="48.60173" lon="1.97352">
        <ele>141.45</ele>
        <time>2021-02-16T09:15:34Z</time>
      </trkpt>
      <trkpt lat="48.60178" lon="1.97357">
        <ele>141.45</ele>
        <time>2021-02-16T09:15:40Z</time>
      </trkpt>
      <trkpt lat="48.60196" lon="1.97373">
        <ele>140.49</ele>
        <time>2021-02-16T09:15:56Z</time>
      </trkpt>
      <trkpt lat="48.60204" lon="1.97379">
        <ele>139.53</ele>
        <time>2021-02-16T09:16:07Z</time>
      </trkpt>
      <trkpt lat="48.60207" lon="1.97387">
        <ele>140.01</ele>
        <time>2021-02-16T09:16:20Z</time>
      </trkpt>
      <trkpt lat="48.60218" lon="1.97397">
        <ele>138.57</ele>
        <time>2021-02-16T09:16:35Z</time>
      </trkpt>
      <trkpt lat="48.60219" lon="1.97399">
        <ele>137.61</ele>
        <time>2021-02-16T09:16:37Z</time>
      </trkpt>
      <trkpt lat="48.60245" lon="1.97421">
        <ele>134.72</ele>
        <time>2021-02-16T09:16:52Z</time>
      </trkpt>
      <trkpt lat="48.60246" lon="1.97422">
        <ele>134.72</ele>
        <time>2021-02-16T09:16:53Z</time>
      </trkpt>
      <trkpt lat="48.60258" lon="1.97433">
        <ele>131.36</ele>
        <time>2021-02-16T09:17:07Z</time>
      </trkpt>
      <trkpt lat="48.60263" lon="1.97438">
        <ele>129.92</ele>
        <time>2021-02-16T09:17:12Z</time>
      </trkpt>
      <trkpt lat="48.60276" lon="1.97448">
        <ele>126.55</ele>
        <time>2021-02-16T09:17:24Z</time>
      </trkpt>
      <trkpt lat="48.60293" lon="1.97464">
        <ele>123.67</ele>
        <time>2021-02-16T09:17:39Z</time>
      </trkpt>
      <trkpt lat="48.60297" lon="1.97472">
        <ele>121.74</ele>
        <time>2021-02-16T09:17:48Z</time>
      </trkpt>
      <trkpt lat="48.60309" lon="1.97483">
        <ele>119.82</ele>
        <time>2021-02-16T09:17:59Z</time>
      </trkpt>
      <trkpt lat="48.60321" lon="1.97497">
        <ele>117.9</ele>
        <time>2021-02-16T09:18:14Z</time>
      </trkpt>
      <trkpt lat="48.60328" lon="1.975">
        <ele>117.9</ele>
        <time>2021-02-16T09:18:18Z</time>
      </trkpt>
      <trkpt lat="48.6033" lon="1.97504">
        <ele>117.9</ele>
        <time>2021-02-16T09:18:21Z</time>
      </trkpt>
      <trkpt lat="48.60334" lon="1.97512">
        <ele>117.42</ele>
        <time>2021-02-16T09:18:27Z</time>
      </trkpt>
      <trkpt lat="48.60338" lon="1.97518">
        <ele>116.94</ele>
        <time>2021-02-16T09:18:32Z</time>
      </trkpt>
      <trkpt lat="48.60343" lon="1.97528">
        <ele>116.46</ele>
        <time>2021-02-16T09:18:39Z</time>
      </trkpt>
      <trkpt lat="48.60357" lon="1.97543">
        <ele>115.5</ele>
        <time>2021-02-16T09:18:54Z</time>
      </trkpt>
      <trkpt lat="48.60358" lon="1.97543">
        <ele>115.01</ele>
        <time>2021-02-16T09:18:55Z</time>
      </trkpt>
      <trkpt lat="48.60369" lon="1.97553">
        <ele>115.01</ele>
        <time>2021-02-16T09:19:08Z</time>
      </trkpt>
      <trkpt lat="48.60372" lon="1.97559">
        <ele>114.53</ele>
        <time>2021-02-16T09:19:25Z</time>
      </trkpt>
      <trkpt lat="48.60376" lon="1.97564">
        <ele>114.05</ele>
        <time>2021-02-16T09:19:29Z</time>
      </trkpt>
      <trkpt lat="48.60381" lon="1.97569">
        <ele>114.05</ele>
        <time>2021-02-16T09:19:33Z</time>
      </trkpt>
      <trkpt lat="48.60389" lon="1.97578">
        <ele>113.57</ele>
        <time>2021-02-16T09:19:41Z</time>
      </trkpt>
      <trkpt lat="48.60406" lon="1.97591">
        <ele>113.57</ele>
        <time>2021-02-16T09:19:55Z</time>
      </trkpt>
      <trkpt lat="48.60411" lon="1.97598">
        <ele>112.61</ele>
        <time>2021-02-16T09:20:01Z</time>
      </trkpt>
      <trkpt lat="48.60436" lon="1.97618">
        <ele>112.13</ele>
        <time>2021-02-16T09:20:17Z</time>
      </trkpt>
      <trkpt lat="48.60445" lon="1.97628">
        <ele>111.65</ele>
        <time>2021-02-16T09:20:25Z</time>
      </trkpt>
      <trkpt lat="48.60448" lon="1.97632">
        <ele>111.17</ele>
        <time>2021-02-16T09:20:28Z</time>
      </trkpt>
      <trkpt lat="48.60468" lon="1.97654">
        <ele>110.21</ele>
        <time>2021-02-16T09:20:45Z</time>
      </trkpt>
      <trkpt lat="48.60475" lon="1.97664">
        <ele>109.73</ele>
        <time>2021-02-16T09:20:54Z</time>
      </trkpt>
      <trkpt lat="48.60493" lon="1.97681">
        <ele>108.29</ele>
        <time>2021-02-16T09:21:11Z</time>
      </trkpt>
      <trkpt lat="48.60514" lon="1.97703">
        <ele>107.32</ele>
        <time>2021-02-16T09:21:26Z</time>
      </trkpt>
      <trkpt lat="48.60532" lon="1.97719">
        <ele>106.36</ele>
        <time>2021-02-16T09:21:41Z</time>
      </trkpt>
      <trkpt lat="48.60544" lon="1.97733">
        <ele>105.4</ele>
        <time>2021-02-16T09:21:52Z</time>
      </trkpt>
      <trkpt lat="48.60569" lon="1.97755">
        <ele>104.92</ele>
        <time>2021-02-16T09:22:07Z</time>
      </trkpt>
      <trkpt lat="48.60578" lon="1.97764">
        <ele>104.44</ele>
        <time>2021-02-16T09:22:15Z</time>
      </trkpt>
      <trkpt lat="48.60583" lon="1.97767">
        <ele>103.96</ele>
        <time>2021-02-16T09:22:18Z</time>
      </trkpt>
      <trkpt lat="48.60589" lon="1.97772">
        <ele>103.96</ele>
        <time>2021-02-16T09:22:23Z</time>
      </trkpt>
      <trkpt lat="48.60593" lon="1.97777">
        <ele>103.48</ele>
        <time>2021-02-16T09:22:28Z</time>
      </trkpt>
      <trkpt lat="48.60601" lon="1.97787">
        <ele>103</ele>
        <time>2021-02-16T09:22:37Z</time>
      </trkpt>
      <trkpt lat="48.60604" lon="1.9779">
        <ele>103</ele>
        <time>2021-02-16T09:22:41Z</time>
      </trkpt>
      <trkpt lat="48.60618" lon="1.97803">
        <ele>102.52</ele>
        <time>2021-02-16T09:22:52Z</time>
      </trkpt>
      <trkpt lat="48.60637" lon="1.97824">
        <ele>102.04</ele>
        <time>2021-02-16T09:23:06Z</time>
      </trkpt>
      <trkpt lat="48.60641" lon="1.97827">
        <ele>102.04</ele>
        <time>2021-02-16T09:23:09Z</time>
      </trkpt>
      <trkpt lat="48.60645" lon="1.97831">
        <ele>102.04</ele>
        <time>2021-02-16T09:23:13Z</time>
      </trkpt>
      <trkpt lat="48.6066" lon="1.97847">
        <ele>101.56</ele>
        <time>2021-02-16T09:23:27Z</time>
      </trkpt>
      <trkpt lat="48.60666" lon="1.97853">
        <ele>101.56</ele>
        <time>2021-02-16T09:23:33Z</time>
      </trkpt>
      <trkpt lat="48.60674" lon="1.97859">
        <ele>101.56</ele>
        <time>2021-02-16T09:23:39Z</time>
      </trkpt>
      <trkpt lat="48.60693" lon="1.97879">
        <ele>101.08</ele>
        <time>2021-02-16T09:23:56Z</time>
      </trkpt>
      <trkpt lat="48.60707" lon="1.97896">
        <ele>101.08</ele>
        <time>2021-02-16T09:24:09Z</time>
      </trkpt>
      <trkpt lat="48.60723" lon="1.97912">
        <ele>100.6</ele>
        <time>2021-02-16T09:24:24Z</time>
      </trkpt>
      <trkpt lat="48.60744" lon="1.97928">
        <ele>100.11</ele>
        <time>2021-02-16T09:24:36Z</time>
      </trkpt>
      <trkpt lat="48.60751" lon="1.97935">
        <ele>99.63</ele>
        <time>2021-02-16T09:24:52Z</time>
      </trkpt>
      <trkpt lat="48.60779" lon="1.97956">
        <ele>99.15</ele>
        <time>2021-02-16T09:25:09Z</time>
      </trkpt>
      <trkpt lat="48.60796" lon="1.97961">
        <ele>98.19</ele>
        <time>2021-02-16T09:25:26Z</time>
      </trkpt>
      <trkpt lat="48.60803" lon="1.97959">
        <ele>97.71</ele>
        <time>2021-02-16T09:25:32Z</time>
      </trkpt>
      <trkpt lat="48.60811" lon="1.9795">
        <ele>97.71</ele>
        <time>2021-02-16T09:25:39Z</time>
      </trkpt>
      <trkpt lat="48.60818" lon="1.9794">
        <ele>97.71</ele>
        <time>2021-02-16T09:25:53Z</time>
      </trkpt>
      <trkpt lat="48.60819" lon="1.979">
        <ele>97.23</ele>
        <time>2021-02-16T09:26:06Z</time>
      </trkpt>
      <trkpt lat="48.60821" lon="1.97875">
        <ele>97.71</ele>
        <time>2021-02-16T09:26:17Z</time>
      </trkpt>
      <trkpt lat="48.60824" lon="1.97846">
        <ele>97.71</ele>
        <time>2021-02-16T09:26:32Z</time>
      </trkpt>
      <trkpt lat="48.60827" lon="1.97811">
        <ele>98.19</ele>
        <time>2021-02-16T09:26:47Z</time>
      </trkpt>
      <trkpt lat="48.60828" lon="1.97783">
        <ele>98.19</ele>
        <time>2021-02-16T09:27:00Z</time>
      </trkpt>
      <trkpt lat="48.60831" lon="1.97757">
        <ele>98.67</ele>
        <time>2021-02-16T09:27:12Z</time>
      </trkpt>
      <trkpt lat="48.60835" lon="1.97722">
        <ele>99.15</ele>
        <time>2021-02-16T09:27:27Z</time>
      </trkpt>
      <trkpt lat="48.60835" lon="1.97693">
        <ele>99.15</ele>
        <time>2021-02-16T09:27:41Z</time>
      </trkpt>
      <trkpt lat="48.60835" lon="1.97691">
        <ele>99.15</ele>
        <time>2021-02-16T09:27:42Z</time>
      </trkpt>
      <trkpt lat="48.60833" lon="1.97665">
        <ele>99.63</ele>
        <time>2021-02-16T09:27:54Z</time>
      </trkpt>
      <trkpt lat="48.60829" lon="1.97637">
        <ele>100.11</ele>
        <time>2021-02-16T09:28:07Z</time>
      </trkpt>
      <trkpt lat="48.60828" lon="1.9763">
        <ele>100.6</ele>
        <time>2021-02-16T09:28:11Z</time>
      </trkpt>
      <trkpt lat="48.60826" lon="1.97606">
        <ele>100.6</ele>
        <time>2021-02-16T09:28:23Z</time>
      </trkpt>
      <trkpt lat="48.60821" lon="1.97584">
        <ele>100.11</ele>
        <time>2021-02-16T09:28:35Z</time>
      </trkpt>
      <trkpt lat="48.60812" lon="1.97562">
        <ele>100.6</ele>
        <time>2021-02-16T09:28:49Z</time>
      </trkpt>
      <trkpt lat="48.60806" lon="1.9755">
        <ele>100.6</ele>
        <time>2021-02-16T09:29:02Z</time>
      </trkpt>
      <trkpt lat="48.60792" lon="1.97517">
        <ele>100.6</ele>
        <time>2021-02-16T09:29:16Z</time>
      </trkpt>
      <trkpt lat="48.60788" lon="1.97496">
        <ele>101.08</ele>
        <time>2021-02-16T09:29:29Z</time>
      </trkpt>
      <trkpt lat="48.60787" lon="1.97491">
        <ele>101.08</ele>
        <time>2021-02-16T09:29:31Z</time>
      </trkpt>
      <trkpt lat="48.60785" lon="1.97469">
        <ele>101.56</ele>
        <time>2021-02-16T09:29:39Z</time>
      </trkpt>
      <trkpt lat="48.60785" lon="1.97458">
        <ele>101.08</ele>
        <time>2021-02-16T09:29:43Z</time>
      </trkpt>
      <trkpt lat="48.60781" lon="1.97447">
        <ele>101.08</ele>
        <time>2021-02-16T09:29:48Z</time>
      </trkpt>
      <trkpt lat="48.60767" lon="1.97445">
        <ele>102.04</ele>
        <time>2021-02-16T09:30:04Z</time>
      </trkpt>
      <trkpt lat="48.60765" lon="1.97443">
        <ele>102.04</ele>
        <time>2021-02-16T09:30:19Z</time>
      </trkpt>
      <trkpt lat="48.6076" lon="1.97446">
        <ele>102.52</ele>
        <time>2021-02-16T09:30:34Z</time>
      </trkpt>
      <trkpt lat="48.60738" lon="1.97465">
        <ele>103</ele>
        <time>2021-02-16T09:30:50Z</time>
      </trkpt>
      <trkpt lat="48.60736" lon="1.97467">
        <ele>103</ele>
        <time>2021-02-16T09:30:51Z</time>
      </trkpt>
      <trkpt lat="48.60711" lon="1.97479">
        <ele>103.48</ele>
        <time>2021-02-16T09:31:06Z</time>
      </trkpt>
      <trkpt lat="48.60708" lon="1.97478">
        <ele>103.48</ele>
        <time>2021-02-16T09:31:09Z</time>
      </trkpt>
      <trkpt lat="48.60681" lon="1.97479">
        <ele>103.48</ele>
        <time>2021-02-16T09:31:24Z</time>
      </trkpt>
      <trkpt lat="48.60669" lon="1.97473">
        <ele>103.96</ele>
        <time>2021-02-16T09:31:33Z</time>
      </trkpt>
      <trkpt lat="48.60657" lon="1.97458">
        <ele>104.44</ele>
        <time>2021-02-16T09:31:48Z</time>
      </trkpt>
      <trkpt lat="48.60646" lon="1.97443">
        <ele>103.96</ele>
        <time>2021-02-16T09:32:03Z</time>
      </trkpt>
      <trkpt lat="48.60637" lon="1.97432">
        <ele>104.92</ele>
        <time>2021-02-16T09:32:17Z</time>
      </trkpt>
      <trkpt lat="48.60618" lon="1.97405">
        <ele>105.4</ele>
        <time>2021-02-16T09:32:33Z</time>
      </trkpt>
      <trkpt lat="48.60599" lon="1.97378">
        <ele>106.36</ele>
        <time>2021-02-16T09:32:46Z</time>
      </trkpt>
      <trkpt lat="48.60585" lon="1.97361">
        <ele>106.36</ele>
        <time>2021-02-16T09:33:00Z</time>
      </trkpt>
      <trkpt lat="48.60569" lon="1.9734">
        <ele>106.84</ele>
        <time>2021-02-16T09:33:15Z</time>
      </trkpt>
      <trkpt lat="48.6055" lon="1.97327">
        <ele>107.32</ele>
        <time>2021-02-16T09:33:30Z</time>
      </trkpt>
      <trkpt lat="48.60534" lon="1.97314">
        <ele>107.81</ele>
        <time>2021-02-16T09:33:44Z</time>
      </trkpt>
      <trkpt lat="48.60515" lon="1.97301">
        <ele>108.29</ele>
        <time>2021-02-16T09:34:01Z</time>
      </trkpt>
      <trkpt lat="48.6049" lon="1.97289">
        <ele>109.25</ele>
        <time>2021-02-16T09:34:19Z</time>
      </trkpt>
      <trkpt lat="48.60466" lon="1.97278">
        <ele>109.25</ele>
        <time>2021-02-16T09:34:36Z</time>
      </trkpt>
      <trkpt lat="48.60437" lon="1.97263">
        <ele>109.25</ele>
        <time>2021-02-16T09:34:53Z</time>
      </trkpt>
      <trkpt lat="48.60425" lon="1.97246">
        <ele>109.73</ele>
        <time>2021-02-16T09:35:08Z</time>
      </trkpt>
      <trkpt lat="48.60412" lon="1.97233">
        <ele>110.21</ele>
        <time>2021-02-16T09:35:21Z</time>
      </trkpt>
      <trkpt lat="48.60398" lon="1.97207">
        <ele>110.69</ele>
        <time>2021-02-16T09:35:36Z</time>
      </trkpt>
      <trkpt lat="48.60391" lon="1.97197">
        <ele>111.17</ele>
        <time>2021-02-16T09:35:52Z</time>
      </trkpt>
      <trkpt lat="48.60372" lon="1.97168">
        <ele>111.17</ele>
        <time>2021-02-16T09:36:07Z</time>
      </trkpt>
      <trkpt lat="48.60356" lon="1.97148">
        <ele>111.17</ele>
        <time>2021-02-16T09:36:21Z</time>
      </trkpt>
      <trkpt lat="48.6034" lon="1.97124">
        <ele>111.17</ele>
        <time>2021-02-16T09:36:37Z</time>
      </trkpt>
      <trkpt lat="48.6032" lon="1.97104">
        <ele>110.69</ele>
        <time>2021-02-16T09:36:53Z</time>
      </trkpt>
      <trkpt lat="48.60313" lon="1.97078">
        <ele>111.17</ele>
        <time>2021-02-16T09:37:07Z</time>
      </trkpt>
      <trkpt lat="48.60308" lon="1.97066">
        <ele>111.65</ele>
        <time>2021-02-16T09:37:17Z</time>
      </trkpt>
      <trkpt lat="48.60307" lon="1.9706">
        <ele>111.17</ele>
        <time>2021-02-16T09:37:19Z</time>
      </trkpt>
      <trkpt lat="48.60299" lon="1.9703">
        <ele>111.65</ele>
        <time>2021-02-16T09:37:32Z</time>
      </trkpt>
      <trkpt lat="48.60296" lon="1.97024">
        <ele>112.13</ele>
        <time>2021-02-16T09:37:49Z</time>
      </trkpt>
      <trkpt lat="48.60293" lon="1.97018">
        <ele>112.13</ele>
        <time>2021-02-16T09:38:16Z</time>
      </trkpt>
      <trkpt lat="48.60293" lon="1.97017">
        <ele>112.13</ele>
        <time>2021-02-16T09:38:41Z</time>
      </trkpt>
      <trkpt lat="48.60292" lon="1.97017">
        <ele>112.13</ele>
        <time>2021-02-16T09:38:59Z</time>
      </trkpt>
      <trkpt lat="48.60293" lon="1.97018">
        <ele>111.65</ele>
        <time>2021-02-16T09:39:16Z</time>
      </trkpt>
      <trkpt lat="48.60294" lon="1.97018">
        <ele>112.13</ele>
        <time>2021-02-16T09:39:39Z</time>
      </trkpt>
      <trkpt lat="48.60294" lon="1.97019">
        <ele>112.61</ele>
        <time>2021-02-16T09:39:57Z</time>
      </trkpt>
      <trkpt lat="48.60294" lon="1.97018">
        <ele>111.65</ele>
        <time>2021-02-16T09:40:18Z</time>
      </trkpt>
      <trkpt lat="48.60292" lon="1.97014">
        <ele>111.65</ele>
        <time>2021-02-16T09:40:35Z</time>
      </trkpt>
      <trkpt lat="48.60291" lon="1.97007">
        <ele>111.65</ele>
        <time>2021-02-16T09:40:48Z</time>
      </trkpt>
      <trkpt lat="48.60284" lon="1.96981">
        <ele>112.61</ele>
        <time>2021-02-16T09:41:00Z</time>
      </trkpt>
      <trkpt lat="48.60278" lon="1.9696">
        <ele>113.09</ele>
        <time>2021-02-16T09:41:11Z</time>
      </trkpt>
      <trkpt lat="48.60272" lon="1.96946">
        <ele>113.57</ele>
        <time>2021-02-16T09:41:24Z</time>
      </trkpt>
      <trkpt lat="48.60263" lon="1.9693">
        <ele>114.05</ele>
        <time>2021-02-16T09:41:39Z</time>
      </trkpt>
      <trkpt lat="48.60254" lon="1.96913">
        <ele>115.01</ele>
        <time>2021-02-16T09:41:54Z</time>
      </trkpt>
      <trkpt lat="48.60244" lon="1.96884">
        <ele>115.5</ele>
        <time>2021-02-16T09:42:09Z</time>
      </trkpt>
      <trkpt lat="48.6023" lon="1.9684">
        <ele>116.46</ele>
        <time>2021-02-16T09:42:25Z</time>
      </trkpt>
      <trkpt lat="48.60223" lon="1.96818">
        <ele>117.9</ele>
        <time>2021-02-16T09:42:41Z</time>
      </trkpt>
      <trkpt lat="48.60216" lon="1.9678">
        <ele>118.38</ele>
        <time>2021-02-16T09:42:54Z</time>
      </trkpt>
      <trkpt lat="48.60211" lon="1.96753">
        <ele>118.38</ele>
        <time>2021-02-16T09:43:08Z</time>
      </trkpt>
      <trkpt lat="48.60202" lon="1.96718">
        <ele>119.34</ele>
        <time>2021-02-16T09:43:24Z</time>
      </trkpt>
      <trkpt lat="48.60199" lon="1.96691">
        <ele>119.82</ele>
        <time>2021-02-16T09:43:40Z</time>
      </trkpt>
      <trkpt lat="48.60199" lon="1.96663">
        <ele>120.3</ele>
        <time>2021-02-16T09:43:54Z</time>
      </trkpt>
      <trkpt lat="48.60203" lon="1.96629">
        <ele>121.26</ele>
        <time>2021-02-16T09:44:09Z</time>
      </trkpt>
      <trkpt lat="48.60205" lon="1.96607">
        <ele>122.22</ele>
        <time>2021-02-16T09:44:20Z</time>
      </trkpt>
      <trkpt lat="48.60206" lon="1.96575">
        <ele>122.71</ele>
        <time>2021-02-16T09:44:35Z</time>
      </trkpt>
      <trkpt lat="48.60205" lon="1.96554">
        <ele>123.67</ele>
        <time>2021-02-16T09:44:46Z</time>
      </trkpt>
      <trkpt lat="48.60205" lon="1.96522">
        <ele>124.15</ele>
        <time>2021-02-16T09:45:01Z</time>
      </trkpt>
      <trkpt lat="48.60205" lon="1.96516">
        <ele>124.63</ele>
        <time>2021-02-16T09:45:04Z</time>
      </trkpt>
      <trkpt lat="48.60207" lon="1.96486">
        <ele>125.11</ele>
        <time>2021-02-16T09:45:19Z</time>
      </trkpt>
      <trkpt lat="48.60207" lon="1.96483">
        <ele>125.11</ele>
        <time>2021-02-16T09:45:20Z</time>
      </trkpt>
      <trkpt lat="48.60203" lon="1.96461">
        <ele>125.59</ele>
        <time>2021-02-16T09:45:33Z</time>
      </trkpt>
      <trkpt lat="48.60198" lon="1.96428">
        <ele>127.99</ele>
        <time>2021-02-16T09:45:49Z</time>
      </trkpt>
      <trkpt lat="48.60197" lon="1.9642">
        <ele>127.99</ele>
        <time>2021-02-16T09:45:53Z</time>
      </trkpt>
      <trkpt lat="48.60195" lon="1.96386">
        <ele>128.95</ele>
        <time>2021-02-16T09:46:09Z</time>
      </trkpt>
      <trkpt lat="48.60188" lon="1.9636">
        <ele>128.47</ele>
        <time>2021-02-16T09:46:24Z</time>
      </trkpt>
      <trkpt lat="48.60183" lon="1.9633">
        <ele>126.55</ele>
        <time>2021-02-16T09:46:38Z</time>
      </trkpt>
      <trkpt lat="48.60178" lon="1.96301">
        <ele>125.11</ele>
        <time>2021-02-16T09:46:53Z</time>
      </trkpt>
      <trkpt lat="48.60168" lon="1.96278">
        <ele>123.19</ele>
        <time>2021-02-16T09:47:10Z</time>
      </trkpt>
      <trkpt lat="48.60153" lon="1.96252">
        <ele>121.26</ele>
        <time>2021-02-16T09:47:27Z</time>
      </trkpt>
      <trkpt lat="48.60146" lon="1.96225">
        <ele>119.34</ele>
        <time>2021-02-16T09:47:41Z</time>
      </trkpt>
      <trkpt lat="48.6015" lon="1.96204">
        <ele>117.42</ele>
        <time>2021-02-16T09:47:56Z</time>
      </trkpt>
      <trkpt lat="48.60153" lon="1.96173">
        <ele>115.98</ele>
        <time>2021-02-16T09:48:10Z</time>
      </trkpt>
      <trkpt lat="48.60153" lon="1.96164">
        <ele>115.5</ele>
        <time>2021-02-16T09:48:14Z</time>
      </trkpt>
      <trkpt lat="48.60151" lon="1.96132">
        <ele>115.01</ele>
        <time>2021-02-16T09:48:30Z</time>
      </trkpt>
      <trkpt lat="48.60148" lon="1.9611">
        <ele>114.05</ele>
        <time>2021-02-16T09:48:43Z</time>
      </trkpt>
      <trkpt lat="48.60145" lon="1.9609">
        <ele>113.57</ele>
        <time>2021-02-16T09:48:50Z</time>
      </trkpt>
      <trkpt lat="48.60138" lon="1.96056">
        <ele>113.09</ele>
        <time>2021-02-16T09:49:06Z</time>
      </trkpt>
      <trkpt lat="48.60136" lon="1.96026">
        <ele>112.13</ele>
        <time>2021-02-16T09:49:22Z</time>
      </trkpt>
      <trkpt lat="48.60133" lon="1.96006">
        <ele>111.65</ele>
        <time>2021-02-16T09:49:31Z</time>
      </trkpt>
      <trkpt lat="48.60128" lon="1.95976">
        <ele>110.69</ele>
        <time>2021-02-16T09:49:46Z</time>
      </trkpt>
      <trkpt lat="48.60126" lon="1.9596">
        <ele>110.69</ele>
        <time>2021-02-16T09:49:57Z</time>
      </trkpt>
      <trkpt lat="48.60125" lon="1.95955">
        <ele>110.21</ele>
        <time>2021-02-16T09:50:00Z</time>
      </trkpt>
      <trkpt lat="48.60116" lon="1.95926">
        <ele>109.73</ele>
        <time>2021-02-16T09:50:14Z</time>
      </trkpt>
      <trkpt lat="48.60108" lon="1.95903">
        <ele>108.77</ele>
        <time>2021-02-16T09:50:29Z</time>
      </trkpt>
      <trkpt lat="48.60091" lon="1.9588">
        <ele>108.29</ele>
        <time>2021-02-16T09:50:45Z</time>
      </trkpt>
      <trkpt lat="48.60081" lon="1.95869">
        <ele>108.77</ele>
        <time>2021-02-16T09:51:01Z</time>
      </trkpt>
      <trkpt lat="48.60064" lon="1.95855">
        <ele>109.25</ele>
        <time>2021-02-16T09:51:15Z</time>
      </trkpt>
      <trkpt lat="48.6005" lon="1.95832">
        <ele>110.21</ele>
        <time>2021-02-16T09:51:32Z</time>
      </trkpt>
      <trkpt lat="48.60044" lon="1.9582">
        <ele>110.21</ele>
        <time>2021-02-16T09:51:39Z</time>
      </trkpt>
      <trkpt lat="48.60029" lon="1.95783">
        <ele>110.69</ele>
        <time>2021-02-16T09:51:56Z</time>
      </trkpt>
      <trkpt lat="48.60019" lon="1.95756">
        <ele>111.65</ele>
        <time>2021-02-16T09:52:10Z</time>
      </trkpt>
      <trkpt lat="48.60017" lon="1.9575">
        <ele>111.65</ele>
        <time>2021-02-16T09:52:12Z</time>
      </trkpt>
      <trkpt lat="48.60009" lon="1.95722">
        <ele>112.61</ele>
        <time>2021-02-16T09:52:28Z</time>
      </trkpt>
      <trkpt lat="48.59998" lon="1.95705">
        <ele>114.05</ele>
        <time>2021-02-16T09:52:43Z</time>
      </trkpt>
      <trkpt lat="48.59978" lon="1.95691">
        <ele>115.5</ele>
        <time>2021-02-16T09:53:00Z</time>
      </trkpt>
      <trkpt lat="48.5996" lon="1.95688">
        <ele>116.94</ele>
        <time>2021-02-16T09:53:14Z</time>
      </trkpt>
      <trkpt lat="48.59945" lon="1.95682">
        <ele>116.94</ele>
        <time>2021-02-16T09:53:28Z</time>
      </trkpt>
      <trkpt lat="48.59924" lon="1.95689">
        <ele>116.46</ele>
        <time>2021-02-16T09:53:44Z</time>
      </trkpt>
      <trkpt lat="48.59907" lon="1.95689">
        <ele>115.01</ele>
        <time>2021-02-16T09:53:57Z</time>
      </trkpt>
      <trkpt lat="48.59893" lon="1.95687">
        <ele>114.05</ele>
        <time>2021-02-16T09:54:11Z</time>
      </trkpt>
      <trkpt lat="48.5988" lon="1.9569">
        <ele>113.57</ele>
        <time>2021-02-16T09:54:26Z</time>
      </trkpt>
      <trkpt lat="48.59879" lon="1.95686">
        <ele>113.57</ele>
        <time>2021-02-16T09:54:54Z</time>
      </trkpt>
      <trkpt lat="48.59877" lon="1.95689">
        <ele>113.57</ele>
        <time>2021-02-16T09:55:17Z</time>
      </trkpt>
      <trkpt lat="48.59875" lon="1.95688">
        <ele>114.05</ele>
        <time>2021-02-16T09:55:38Z</time>
      </trkpt>
      <trkpt lat="48.59874" lon="1.95689">
        <ele>114.05</ele>
        <time>2021-02-16T09:55:58Z</time>
      </trkpt>
      <trkpt lat="48.59874" lon="1.95692">
        <ele>114.53</ele>
        <time>2021-02-16T09:56:09Z</time>
      </trkpt>
      <trkpt lat="48.59872" lon="1.95696">
        <ele>114.53</ele>
        <time>2021-02-16T09:56:19Z</time>
      </trkpt>
      <trkpt lat="48.59861" lon="1.95719">
        <ele>114.53</ele>
        <time>2021-02-16T09:56:34Z</time>
      </trkpt>
      <trkpt lat="48.59854" lon="1.95734">
        <ele>115.01</ele>
        <time>2021-02-16T09:56:50Z</time>
      </trkpt>
      <trkpt lat="48.59842" lon="1.9576">
        <ele>115.5</ele>
        <time>2021-02-16T09:57:06Z</time>
      </trkpt>
      <trkpt lat="48.59832" lon="1.95783">
        <ele>115.98</ele>
        <time>2021-02-16T09:57:19Z</time>
      </trkpt>
      <trkpt lat="48.59815" lon="1.95812">
        <ele>115.98</ele>
        <time>2021-02-16T09:57:35Z</time>
      </trkpt>
      <trkpt lat="48.59803" lon="1.95837">
        <ele>116.46</ele>
        <time>2021-02-16T09:57:48Z</time>
      </trkpt>
      <trkpt lat="48.59796" lon="1.95853">
        <ele>116.46</ele>
        <time>2021-02-16T09:58:03Z</time>
      </trkpt>
      <trkpt lat="48.59787" lon="1.95871">
        <ele>116.94</ele>
        <time>2021-02-16T09:58:17Z</time>
      </trkpt>
      <trkpt lat="48.59782" lon="1.95881">
        <ele>117.42</ele>
        <time>2021-02-16T09:58:21Z</time>
      </trkpt>
      <trkpt lat="48.59772" lon="1.95911">
        <ele>117.9</ele>
        <time>2021-02-16T09:58:36Z</time>
      </trkpt>
      <trkpt lat="48.5976" lon="1.95939">
        <ele>118.86</ele>
        <time>2021-02-16T09:58:53Z</time>
      </trkpt>
      <trkpt lat="48.59744" lon="1.95967">
        <ele>119.82</ele>
        <time>2021-02-16T09:59:07Z</time>
      </trkpt>
      <trkpt lat="48.59736" lon="1.95985">
        <ele>120.78</ele>
        <time>2021-02-16T09:59:25Z</time>
      </trkpt>
      <trkpt lat="48.59728" lon="1.96004">
        <ele>121.26</ele>
        <time>2021-02-16T09:59:40Z</time>
      </trkpt>
      <trkpt lat="48.59711" lon="1.96044">
        <ele>122.71</ele>
        <time>2021-02-16T09:59:56Z</time>
      </trkpt>
      <trkpt lat="48.59695" lon="1.96078">
        <ele>126.07</ele>
        <time>2021-02-16T10:00:12Z</time>
      </trkpt>
      <trkpt lat="48.59683" lon="1.96108">
        <ele>127.03</ele>
        <time>2021-02-16T10:00:28Z</time>
      </trkpt>
      <trkpt lat="48.59667" lon="1.96133">
        <ele>127.99</ele>
        <time>2021-02-16T10:00:42Z</time>
      </trkpt>
      <trkpt lat="48.59661" lon="1.96146">
        <ele>129.92</ele>
        <time>2021-02-16T10:00:56Z</time>
      </trkpt>
      <trkpt lat="48.59651" lon="1.96161">
        <ele>132.8</ele>
        <time>2021-02-16T10:01:09Z</time>
      </trkpt>
      <trkpt lat="48.5965" lon="1.96164">
        <ele>133.28</ele>
        <time>2021-02-16T10:01:10Z</time>
      </trkpt>
      <trkpt lat="48.59637" lon="1.96192">
        <ele>134.72</ele>
        <time>2021-02-16T10:01:20Z</time>
      </trkpt>
      <trkpt lat="48.59628" lon="1.96212">
        <ele>137.13</ele>
        <time>2021-02-16T10:01:33Z</time>
      </trkpt>
      <trkpt lat="48.59615" lon="1.96234">
        <ele>140.01</ele>
        <time>2021-02-16T10:01:43Z</time>
      </trkpt>
      <trkpt lat="48.59614" lon="1.96236">
        <ele>140.49</ele>
        <time>2021-02-16T10:01:45Z</time>
      </trkpt>
      <trkpt lat="48.59609" lon="1.96252">
        <ele>143.37</ele>
        <time>2021-02-16T10:01:59Z</time>
      </trkpt>
      <trkpt lat="48.59602" lon="1.96264">
        <ele>144.34</ele>
        <time>2021-02-16T10:02:10Z</time>
      </trkpt>
      <trkpt lat="48.59591" lon="1.96286">
        <ele>145.78</ele>
        <time>2021-02-16T10:02:22Z</time>
      </trkpt>
      <trkpt lat="48.59585" lon="1.96301">
        <ele>146.74</ele>
        <time>2021-02-16T10:02:33Z</time>
      </trkpt>
      <trkpt lat="48.59582" lon="1.96308">
        <ele>147.22</ele>
        <time>2021-02-16T10:02:37Z</time>
      </trkpt>
      <trkpt lat="48.59574" lon="1.96326">
        <ele>147.22</ele>
        <time>2021-02-16T10:02:48Z</time>
      </trkpt>
      <trkpt lat="48.59564" lon="1.9635">
        <ele>147.22</ele>
        <time>2021-02-16T10:03:03Z</time>
      </trkpt>
      <trkpt lat="48.59553" lon="1.96371">
        <ele>146.26</ele>
        <time>2021-02-16T10:03:17Z</time>
      </trkpt>
      <trkpt lat="48.59543" lon="1.96393">
        <ele>145.3</ele>
        <time>2021-02-16T10:03:30Z</time>
      </trkpt>
      <trkpt lat="48.5954" lon="1.96399">
        <ele>145.3</ele>
        <time>2021-02-16T10:03:34Z</time>
      </trkpt>
      <trkpt lat="48.59528" lon="1.96422">
        <ele>143.85</ele>
        <time>2021-02-16T10:03:47Z</time>
      </trkpt>
      <trkpt lat="48.59519" lon="1.9644">
        <ele>142.89</ele>
        <time>2021-02-16T10:03:59Z</time>
      </trkpt>
      <trkpt lat="48.59518" lon="1.96442">
        <ele>142.89</ele>
        <time>2021-02-16T10:04:00Z</time>
      </trkpt>
      <trkpt lat="48.59511" lon="1.96459">
        <ele>141.45</ele>
        <time>2021-02-16T10:04:13Z</time>
      </trkpt>
      <trkpt lat="48.59506" lon="1.9647">
        <ele>140.97</ele>
        <time>2021-02-16T10:04:20Z</time>
      </trkpt>
      <trkpt lat="48.59496" lon="1.96493">
        <ele>139.53</ele>
        <time>2021-02-16T10:04:35Z</time>
      </trkpt>
      <trkpt lat="48.59487" lon="1.9651">
        <ele>137.61</ele>
        <time>2021-02-16T10:04:49Z</time>
      </trkpt>
      <trkpt lat="48.59487" lon="1.96512">
        <ele>137.61</ele>
        <time>2021-02-16T10:04:50Z</time>
      </trkpt>
      <trkpt lat="48.59486" lon="1.96516">
        <ele>137.13</ele>
        <time>2021-02-16T10:04:52Z</time>
      </trkpt>
      <trkpt lat="48.59476" lon="1.9654">
        <ele>136.16</ele>
        <time>2021-02-16T10:05:06Z</time>
      </trkpt>
      <trkpt lat="48.59469" lon="1.96555">
        <ele>135.68</ele>
        <time>2021-02-16T10:05:14Z</time>
      </trkpt>
      <trkpt lat="48.59465" lon="1.96562">
        <ele>135.2</ele>
        <time>2021-02-16T10:05:20Z</time>
      </trkpt>
      <trkpt lat="48.59462" lon="1.96566">
        <ele>135.2</ele>
        <time>2021-02-16T10:05:23Z</time>
      </trkpt>
      <trkpt lat="48.59452" lon="1.96586">
        <ele>135.2</ele>
        <time>2021-02-16T10:05:35Z</time>
      </trkpt>
      <trkpt lat="48.59444" lon="1.96607">
        <ele>137.13</ele>
        <time>2021-02-16T10:05:47Z</time>
      </trkpt>
      <trkpt lat="48.59436" lon="1.96627">
        <ele>136.16</ele>
        <time>2021-02-16T10:05:57Z</time>
      </trkpt>
      <trkpt lat="48.59431" lon="1.96641">
        <ele>135.2</ele>
        <time>2021-02-16T10:06:04Z</time>
      </trkpt>
      <trkpt lat="48.59428" lon="1.96648">
        <ele>134.72</ele>
        <time>2021-02-16T10:06:08Z</time>
      </trkpt>
      <trkpt lat="48.59418" lon="1.9666">
        <ele>135.2</ele>
        <time>2021-02-16T10:06:17Z</time>
      </trkpt>
      <trkpt lat="48.59414" lon="1.96668">
        <ele>136.16</ele>
        <time>2021-02-16T10:06:21Z</time>
      </trkpt>
      <trkpt lat="48.59411" lon="1.96677">
        <ele>135.68</ele>
        <time>2021-02-16T10:06:26Z</time>
      </trkpt>
      <trkpt lat="48.59401" lon="1.96693">
        <ele>135.68</ele>
        <time>2021-02-16T10:06:36Z</time>
      </trkpt>
      <trkpt lat="48.59399" lon="1.96699">
        <ele>135.68</ele>
        <time>2021-02-16T10:06:39Z</time>
      </trkpt>
      <trkpt lat="48.59398" lon="1.96702">
        <ele>136.16</ele>
        <time>2021-02-16T10:06:41Z</time>
      </trkpt>
      <trkpt lat="48.59394" lon="1.9671">
        <ele>136.64</ele>
        <time>2021-02-16T10:06:46Z</time>
      </trkpt>
      <trkpt lat="48.59384" lon="1.96732">
        <ele>137.13</ele>
        <time>2021-02-16T10:06:59Z</time>
      </trkpt>
      <trkpt lat="48.59383" lon="1.96735">
        <ele>137.13</ele>
        <time>2021-02-16T10:07:01Z</time>
      </trkpt>
      <trkpt lat="48.59378" lon="1.96747">
        <ele>137.61</ele>
        <time>2021-02-16T10:07:08Z</time>
      </trkpt>
      <trkpt lat="48.59374" lon="1.96756">
        <ele>138.09</ele>
        <time>2021-02-16T10:07:13Z</time>
      </trkpt>
      <trkpt lat="48.5937" lon="1.96765">
        <ele>138.09</ele>
        <time>2021-02-16T10:07:18Z</time>
      </trkpt>
      <trkpt lat="48.59367" lon="1.96773">
        <ele>138.09</ele>
        <time>2021-02-16T10:07:23Z</time>
      </trkpt>
      <trkpt lat="48.59357" lon="1.9679">
        <ele>137.13</ele>
        <time>2021-02-16T10:07:36Z</time>
      </trkpt>
      <trkpt lat="48.59348" lon="1.96814">
        <ele>135.2</ele>
        <time>2021-02-16T10:07:48Z</time>
      </trkpt>
      <trkpt lat="48.5934" lon="1.96832">
        <ele>132.8</ele>
        <time>2021-02-16T10:08:02Z</time>
      </trkpt>
      <trkpt lat="48.59331" lon="1.96848">
        <ele>131.36</ele>
        <time>2021-02-16T10:08:17Z</time>
      </trkpt>
      <trkpt lat="48.59322" lon="1.96869">
        <ele>127.99</ele>
        <time>2021-02-16T10:08:29Z</time>
      </trkpt>
      <trkpt lat="48.59314" lon="1.96886">
        <ele>125.59</ele>
        <time>2021-02-16T10:08:42Z</time>
      </trkpt>
      <trkpt lat="48.59303" lon="1.96907">
        <ele>123.19</ele>
        <time>2021-02-16T10:08:55Z</time>
      </trkpt>
      <trkpt lat="48.59297" lon="1.96924">
        <ele>120.78</ele>
        <time>2021-02-16T10:09:11Z</time>
      </trkpt>
      <trkpt lat="48.59291" lon="1.96933">
        <ele>119.34</ele>
        <time>2021-02-16T10:09:20Z</time>
      </trkpt>
      <trkpt lat="48.59288" lon="1.96939">
        <ele>118.86</ele>
        <time>2021-02-16T10:09:23Z</time>
      </trkpt>
      <trkpt lat="48.59285" lon="1.96943">
        <ele>118.38</ele>
        <time>2021-02-16T10:09:25Z</time>
      </trkpt>
      <trkpt lat="48.59271" lon="1.96977">
        <ele>115.5</ele>
        <time>2021-02-16T10:09:41Z</time>
      </trkpt>
      <trkpt lat="48.59257" lon="1.97013">
        <ele>115.01</ele>
        <time>2021-02-16T10:09:57Z</time>
      </trkpt>
      <trkpt lat="48.59251" lon="1.97022">
        <ele>115.01</ele>
        <time>2021-02-16T10:10:03Z</time>
      </trkpt>
      <trkpt lat="48.59246" lon="1.97033">
        <ele>114.53</ele>
        <time>2021-02-16T10:10:09Z</time>
      </trkpt>
      <trkpt lat="48.59236" lon="1.97055">
        <ele>114.05</ele>
        <time>2021-02-16T10:10:27Z</time>
      </trkpt>
      <trkpt lat="48.59229" lon="1.97068">
        <ele>114.05</ele>
        <time>2021-02-16T10:10:42Z</time>
      </trkpt>
      <trkpt lat="48.59218" lon="1.97085">
        <ele>113.09</ele>
        <time>2021-02-16T10:10:56Z</time>
      </trkpt>
      <trkpt lat="48.59216" lon="1.97087">
        <ele>113.09</ele>
        <time>2021-02-16T10:10:57Z</time>
      </trkpt>
      <trkpt lat="48.59205" lon="1.9711">
        <ele>112.13</ele>
        <time>2021-02-16T10:11:09Z</time>
      </trkpt>
      <trkpt lat="48.59198" lon="1.97122">
        <ele>111.17</ele>
        <time>2021-02-16T10:11:22Z</time>
      </trkpt>
      <trkpt lat="48.59187" lon="1.97144">
        <ele>109.73</ele>
        <time>2021-02-16T10:11:37Z</time>
      </trkpt>
      <trkpt lat="48.5918" lon="1.97159">
        <ele>108.77</ele>
        <time>2021-02-16T10:11:49Z</time>
      </trkpt>
      <trkpt lat="48.59172" lon="1.97181">
        <ele>108.29</ele>
        <time>2021-02-16T10:12:03Z</time>
      </trkpt>
      <trkpt lat="48.59157" lon="1.97212">
        <ele>107.81</ele>
        <time>2021-02-16T10:12:15Z</time>
      </trkpt>
      <trkpt lat="48.59149" lon="1.97223">
        <ele>107.32</ele>
        <time>2021-02-16T10:12:28Z</time>
      </trkpt>
      <trkpt lat="48.59137" lon="1.9725">
        <ele>106.84</ele>
        <time>2021-02-16T10:12:44Z</time>
      </trkpt>
      <trkpt lat="48.59129" lon="1.97267">
        <ele>106.36</ele>
        <time>2021-02-16T10:12:55Z</time>
      </trkpt>
      <trkpt lat="48.59122" lon="1.97293">
        <ele>105.88</ele>
        <time>2021-02-16T10:13:12Z</time>
      </trkpt>
      <trkpt lat="48.59107" lon="1.97312">
        <ele>104.92</ele>
        <time>2021-02-16T10:13:28Z</time>
      </trkpt>
      <trkpt lat="48.59089" lon="1.97315">
        <ele>103.96</ele>
        <time>2021-02-16T10:13:44Z</time>
      </trkpt>
      <trkpt lat="48.59059" lon="1.97289">
        <ele>103.48</ele>
        <time>2021-02-16T10:13:59Z</time>
      </trkpt>
      <trkpt lat="48.5904" lon="1.97271">
        <ele>103</ele>
        <time>2021-02-16T10:14:17Z</time>
      </trkpt>
      <trkpt lat="48.59026" lon="1.97244">
        <ele>102.52</ele>
        <time>2021-02-16T10:14:29Z</time>
      </trkpt>
      <trkpt lat="48.59024" lon="1.97225">
        <ele>102.52</ele>
        <time>2021-02-16T10:14:44Z</time>
      </trkpt>
      <trkpt lat="48.59024" lon="1.97207">
        <ele>102.52</ele>
        <time>2021-02-16T10:14:57Z</time>
      </trkpt>
      <trkpt lat="48.59026" lon="1.97187">
        <ele>102.52</ele>
        <time>2021-02-16T10:15:10Z</time>
      </trkpt>
      <trkpt lat="48.59026" lon="1.97158">
        <ele>102.52</ele>
        <time>2021-02-16T10:15:24Z</time>
      </trkpt>
      <trkpt lat="48.59024" lon="1.9713">
        <ele>102.52</ele>
        <time>2021-02-16T10:15:37Z</time>
      </trkpt>
      <trkpt lat="48.59023" lon="1.971">
        <ele>102.52</ele>
        <time>2021-02-16T10:15:50Z</time>
      </trkpt>
      <trkpt lat="48.59027" lon="1.97078">
        <ele>102.52</ele>
        <time>2021-02-16T10:16:03Z</time>
      </trkpt>
      <trkpt lat="48.59035" lon="1.9706">
        <ele>102.52</ele>
        <time>2021-02-16T10:16:15Z</time>
      </trkpt>
      <trkpt lat="48.59037" lon="1.97039">
        <ele>102.04</ele>
        <time>2021-02-16T10:16:23Z</time>
      </trkpt>
      <trkpt lat="48.5904" lon="1.97013">
        <ele>102.04</ele>
        <time>2021-02-16T10:16:34Z</time>
      </trkpt>
      <trkpt lat="48.59047" lon="1.96988">
        <ele>101.56</ele>
        <time>2021-02-16T10:16:46Z</time>
      </trkpt>
      <trkpt lat="48.59051" lon="1.96957">
        <ele>101.08</ele>
        <time>2021-02-16T10:17:00Z</time>
      </trkpt>
      <trkpt lat="48.59057" lon="1.96936">
        <ele>100.6</ele>
        <time>2021-02-16T10:17:12Z</time>
      </trkpt>
      <trkpt lat="48.59062" lon="1.96914">
        <ele>100.6</ele>
        <time>2021-02-16T10:17:24Z</time>
      </trkpt>
      <trkpt lat="48.59061" lon="1.96899">
        <ele>100.11</ele>
        <time>2021-02-16T10:17:35Z</time>
      </trkpt>
      <trkpt lat="48.59063" lon="1.96879">
        <ele>99.15</ele>
        <time>2021-02-16T10:17:46Z</time>
      </trkpt>
      <trkpt lat="48.59065" lon="1.96862">
        <ele>99.15</ele>
        <time>2021-02-16T10:17:56Z</time>
      </trkpt>
      <trkpt lat="48.59078" lon="1.96842">
        <ele>99.15</ele>
        <time>2021-02-16T10:18:06Z</time>
      </trkpt>
      <trkpt lat="48.59079" lon="1.9682">
        <ele>99.15</ele>
        <time>2021-02-16T10:18:19Z</time>
      </trkpt>
      <trkpt lat="48.59088" lon="1.96785">
        <ele>99.15</ele>
        <time>2021-02-16T10:18:31Z</time>
      </trkpt>
      <trkpt lat="48.59095" lon="1.96758">
        <ele>98.67</ele>
        <time>2021-02-16T10:18:44Z</time>
      </trkpt>
      <trkpt lat="48.59101" lon="1.96744">
        <ele>98.67</ele>
        <time>2021-02-16T10:18:56Z</time>
      </trkpt>
      <trkpt lat="48.59123" lon="1.96719">
        <ele>98.19</ele>
        <time>2021-02-16T10:19:09Z</time>
      </trkpt>
      <trkpt lat="48.59122" lon="1.96708">
        <ele>98.19</ele>
        <time>2021-02-16T10:19:13Z</time>
      </trkpt>
      <trkpt lat="48.59129" lon="1.96687">
        <ele>97.71</ele>
        <time>2021-02-16T10:19:24Z</time>
      </trkpt>
      <trkpt lat="48.59136" lon="1.96667">
        <ele>97.71</ele>
        <time>2021-02-16T10:19:36Z</time>
      </trkpt>
      <trkpt lat="48.59136" lon="1.96658">
        <ele>98.67</ele>
        <time>2021-02-16T10:19:43Z</time>
      </trkpt>
      <trkpt lat="48.59143" lon="1.96642">
        <ele>98.67</ele>
        <time>2021-02-16T10:19:56Z</time>
      </trkpt>
      <trkpt lat="48.59144" lon="1.96625">
        <ele>98.19</ele>
        <time>2021-02-16T10:20:11Z</time>
      </trkpt>
      <trkpt lat="48.59149" lon="1.96613">
        <ele>98.19</ele>
        <time>2021-02-16T10:20:24Z</time>
      </trkpt>
      <trkpt lat="48.59152" lon="1.96614">
        <ele>97.71</ele>
        <time>2021-02-16T10:20:41Z</time>
      </trkpt>
      <trkpt lat="48.59153" lon="1.96614">
        <ele>97.23</ele>
        <time>2021-02-16T10:20:47Z</time>
      </trkpt>
      <trkpt lat="48.5916" lon="1.96611">
        <ele>96.75</ele>
        <time>2021-02-16T10:21:01Z</time>
      </trkpt>
      <trkpt lat="48.59169" lon="1.9661">
        <ele>96.75</ele>
        <time>2021-02-16T10:21:20Z</time>
      </trkpt>
    </trkseg>
  </trk>
</gpx>